<?xml version="1.0" encoding="UTF-8" standalone="no" ?>
<gpx xmlns="http://www.topografix.com/GPX/1/1" xmlns:xsi="http://www.w3.org/2001/XMLSchema-instance" xsi:schemaLocation="http://www.topografix.com/GPX/1/1 http://www.topografix.com/GPX/1/1/gpx.xsd" version="1.1" creator="VisuGPX - https://www.visugpx.com">
  <metadata>
    <name>2019-03-24 09:49_VTT boucle Le Cros d'Utelle_Utelle</name>
    <desc><![CDATA[
<p>Heure de départ: 03/24/2019 09:49<br/>Heure d'arrivée: 03/24/2019 17:06<br/>Distance: 13,8 km (07:16)<br/>Temps déplacement: 03:38<br/>Vitesse moyenne: 1,89 km/h<br/>Vitesse moyenne mouv.: 3,79 km/h<br/>Vitesse Max.: 9,63 km/h<br/>Altitude minimale: 306 m<br/>Altitude maximale: 766 m<br/>Vitesse de montée: 332,4 m/h<br/>Vitesse de descente: -284,1 m/h<br/>Gain d'altitude: 899 m<br/>Perte d'altitude: -853 m<br/>Temps de montée: 02:42<br/>Temps de descente: 03:00<br/></p><hr align="center" width="480" style="height: 2px; width: 517px"/>]]></desc>
  </metadata>
  <trk>
    <name><![CDATA[2019-03-24 09:49]]></name>
    <desc><![CDATA[<p>Heure de départ: 03/24/2019 09:49<br/>Heure d'arrivée: 03/24/2019 17:06<br/>Distance: 13,8 km (07:16)<br/>Temps déplacement: 03:38<br/>Vitesse moyenne: 1,89 km/h<br/>Vitesse moyenne mouv.: 3,79 km/h<br/>Vitesse Max.: 9,63 km/h<br/>Altitude minimale: 306 m<br/>Altitude maximale: 766 m<br/>Vitesse de montée: 332,4 m/h<br/>Vitesse de descente: -284,1 m/h<br/>Gain d'altitude: 899 m<br/>Perte d'altitude: -853 m<br/>Temps de montée: 02:42<br/>Temps de descente: 03:00<br/></p><hr align="center" width="480" style="height: 2px; width: 517px"/>]]></desc>
    <trkseg>
      <trkpt lat="43.8832" lon="7.23689">
        <ele>306.2</ele>
        <time>2019-03-24T08:49:59Z</time>
      </trkpt>
      <trkpt lat="43.88324" lon="7.23714">
        <ele>309.85</ele>
        <time>2019-03-24T08:50:23Z</time>
      </trkpt>
      <trkpt lat="43.88334" lon="7.23735">
        <ele>311.24</ele>
        <time>2019-03-24T08:50:41Z</time>
      </trkpt>
      <trkpt lat="43.88347" lon="7.23754">
        <ele>312.64</ele>
        <time>2019-03-24T08:50:59Z</time>
      </trkpt>
      <trkpt lat="43.88353" lon="7.23778">
        <ele>313.79</ele>
        <time>2019-03-24T08:51:19Z</time>
      </trkpt>
      <trkpt lat="43.8836" lon="7.23801">
        <ele>315.45</ele>
        <time>2019-03-24T08:51:45Z</time>
      </trkpt>
      <trkpt lat="43.88371" lon="7.23822">
        <ele>316.54</ele>
        <time>2019-03-24T08:52:03Z</time>
      </trkpt>
      <trkpt lat="43.88381" lon="7.23842">
        <ele>317.39</ele>
        <time>2019-03-24T08:52:23Z</time>
      </trkpt>
      <trkpt lat="43.88384" lon="7.23868">
        <ele>322.61</ele>
        <time>2019-03-24T08:52:57Z</time>
      </trkpt>
      <trkpt lat="43.88391" lon="7.23892">
        <ele>325.13</ele>
        <time>2019-03-24T08:53:17Z</time>
      </trkpt>
      <trkpt lat="43.88406" lon="7.23907">
        <ele>327.29</ele>
        <time>2019-03-24T08:54:09Z</time>
      </trkpt>
      <trkpt lat="43.88412" lon="7.23931">
        <ele>333.26</ele>
        <time>2019-03-24T08:54:31Z</time>
      </trkpt>
      <trkpt lat="43.88418" lon="7.23955">
        <ele>336.61</ele>
        <time>2019-03-24T08:54:57Z</time>
      </trkpt>
      <trkpt lat="43.88435" lon="7.23973">
        <ele>336.01</ele>
        <time>2019-03-24T08:55:17Z</time>
      </trkpt>
      <trkpt lat="43.88442" lon="7.23996">
        <ele>336.66</ele>
        <time>2019-03-24T08:55:33Z</time>
      </trkpt>
      <trkpt lat="43.8845" lon="7.2402">
        <ele>341.35</ele>
        <time>2019-03-24T08:55:57Z</time>
      </trkpt>
      <trkpt lat="43.8846" lon="7.24042">
        <ele>343.55</ele>
        <time>2019-03-24T08:56:15Z</time>
      </trkpt>
      <trkpt lat="43.88474" lon="7.24059">
        <ele>346.34</ele>
        <time>2019-03-24T08:56:37Z</time>
      </trkpt>
      <trkpt lat="43.88491" lon="7.24072">
        <ele>349.06</ele>
        <time>2019-03-24T08:56:57Z</time>
      </trkpt>
      <trkpt lat="43.88508" lon="7.24082">
        <ele>352.74</ele>
        <time>2019-03-24T08:57:21Z</time>
      </trkpt>
      <trkpt lat="43.88526" lon="7.24083">
        <ele>354.13</ele>
        <time>2019-03-24T08:57:37Z</time>
      </trkpt>
      <trkpt lat="43.88545" lon="7.24082">
        <ele>356.31</ele>
        <time>2019-03-24T08:57:57Z</time>
      </trkpt>
      <trkpt lat="43.88552" lon="7.24107">
        <ele>359.54</ele>
        <time>2019-03-24T08:58:19Z</time>
      </trkpt>
      <trkpt lat="43.88569" lon="7.24115">
        <ele>361.53</ele>
        <time>2019-03-24T08:58:41Z</time>
      </trkpt>
      <trkpt lat="43.88577" lon="7.24138">
        <ele>368.51</ele>
        <time>2019-03-24T08:59:15Z</time>
      </trkpt>
      <trkpt lat="43.88581" lon="7.24164">
        <ele>371.44</ele>
        <time>2019-03-24T08:59:33Z</time>
      </trkpt>
      <trkpt lat="43.8859" lon="7.24197">
        <ele>384.63</ele>
        <time>2019-03-24T09:00:11Z</time>
      </trkpt>
      <trkpt lat="43.88589" lon="7.24223">
        <ele>386.11</ele>
        <time>2019-03-24T09:02:25Z</time>
      </trkpt>
      <trkpt lat="43.88595" lon="7.2425">
        <ele>386.94</ele>
        <time>2019-03-24T09:02:49Z</time>
      </trkpt>
      <trkpt lat="43.8861" lon="7.24235">
        <ele>390</ele>
        <time>2019-03-24T09:03:49Z</time>
      </trkpt>
      <trkpt lat="43.88616" lon="7.24201">
        <ele>393.15</ele>
        <time>2019-03-24T09:04:27Z</time>
      </trkpt>
      <trkpt lat="43.8862" lon="7.24176">
        <ele>396.36</ele>
        <time>2019-03-24T09:04:43Z</time>
      </trkpt>
      <trkpt lat="43.88631" lon="7.24154">
        <ele>400.51</ele>
        <time>2019-03-24T09:05:23Z</time>
      </trkpt>
      <trkpt lat="43.8865" lon="7.24158">
        <ele>402.11</ele>
        <time>2019-03-24T09:06:13Z</time>
      </trkpt>
      <trkpt lat="43.88664" lon="7.24142">
        <ele>404.9</ele>
        <time>2019-03-24T09:06:41Z</time>
      </trkpt>
      <trkpt lat="43.88673" lon="7.24165">
        <ele>408.15</ele>
        <time>2019-03-24T09:07:39Z</time>
      </trkpt>
      <trkpt lat="43.88676" lon="7.2419">
        <ele>413.59</ele>
        <time>2019-03-24T09:08:07Z</time>
      </trkpt>
      <trkpt lat="43.88686" lon="7.24213">
        <ele>429.03</ele>
        <time>2019-03-24T09:09:13Z</time>
      </trkpt>
      <trkpt lat="43.88699" lon="7.24232">
        <ele>439.48</ele>
        <time>2019-03-24T09:10:01Z</time>
      </trkpt>
      <trkpt lat="43.88711" lon="7.24252">
        <ele>452.43</ele>
        <time>2019-03-24T09:10:53Z</time>
      </trkpt>
      <trkpt lat="43.88725" lon="7.2427">
        <ele>465.64</ele>
        <time>2019-03-24T09:15:45Z</time>
      </trkpt>
      <trkpt lat="43.88729" lon="7.24296">
        <ele>467.57</ele>
        <time>2019-03-24T09:16:07Z</time>
      </trkpt>
      <trkpt lat="43.88745" lon="7.24279">
        <ele>470.01</ele>
        <time>2019-03-24T09:17:01Z</time>
      </trkpt>
      <trkpt lat="43.88754" lon="7.24256">
        <ele>472.69</ele>
        <time>2019-03-24T09:17:17Z</time>
      </trkpt>
      <trkpt lat="43.88759" lon="7.2423">
        <ele>478.87</ele>
        <time>2019-03-24T09:17:31Z</time>
      </trkpt>
      <trkpt lat="43.88761" lon="7.24255">
        <ele>485.24</ele>
        <time>2019-03-24T09:18:05Z</time>
      </trkpt>
      <trkpt lat="43.88771" lon="7.24277">
        <ele>487.43</ele>
        <time>2019-03-24T09:18:29Z</time>
      </trkpt>
      <trkpt lat="43.88789" lon="7.24267">
        <ele>489.94</ele>
        <time>2019-03-24T09:19:05Z</time>
      </trkpt>
      <trkpt lat="43.88806" lon="7.24253">
        <ele>491.77</ele>
        <time>2019-03-24T09:19:21Z</time>
      </trkpt>
      <trkpt lat="43.88823" lon="7.24242">
        <ele>495</ele>
        <time>2019-03-24T09:19:43Z</time>
      </trkpt>
      <trkpt lat="43.88841" lon="7.24231">
        <ele>499.05</ele>
        <time>2019-03-24T09:20:07Z</time>
      </trkpt>
      <trkpt lat="43.88857" lon="7.24219">
        <ele>502.98</ele>
        <time>2019-03-24T09:20:39Z</time>
      </trkpt>
      <trkpt lat="43.88866" lon="7.24195">
        <ele>511.53</ele>
        <time>2019-03-24T09:21:15Z</time>
      </trkpt>
      <trkpt lat="43.88862" lon="7.24169">
        <ele>520.8</ele>
        <time>2019-03-24T09:21:57Z</time>
      </trkpt>
      <trkpt lat="43.88878" lon="7.24151">
        <ele>525.55</ele>
        <time>2019-03-24T09:22:37Z</time>
      </trkpt>
      <trkpt lat="43.88896" lon="7.24148">
        <ele>526.15</ele>
        <time>2019-03-24T09:22:59Z</time>
      </trkpt>
      <trkpt lat="43.88915" lon="7.24148">
        <ele>528.43</ele>
        <time>2019-03-24T09:23:21Z</time>
      </trkpt>
      <trkpt lat="43.88935" lon="7.2415">
        <ele>529.84</ele>
        <time>2019-03-24T09:23:39Z</time>
      </trkpt>
      <trkpt lat="43.88946" lon="7.24171">
        <ele>529.38</ele>
        <time>2019-03-24T09:24:11Z</time>
      </trkpt>
      <trkpt lat="43.88951" lon="7.24198">
        <ele>528.73</ele>
        <time>2019-03-24T09:24:23Z</time>
      </trkpt>
      <trkpt lat="43.88972" lon="7.24196">
        <ele>530.1</ele>
        <time>2019-03-24T09:24:43Z</time>
      </trkpt>
      <trkpt lat="43.88989" lon="7.24202">
        <ele>531.13</ele>
        <time>2019-03-24T09:24:57Z</time>
      </trkpt>
      <trkpt lat="43.88993" lon="7.24228">
        <ele>530.63</ele>
        <time>2019-03-24T09:25:27Z</time>
      </trkpt>
      <trkpt lat="43.88979" lon="7.24245">
        <ele>533.76</ele>
        <time>2019-03-24T09:25:59Z</time>
      </trkpt>
      <trkpt lat="43.88984" lon="7.24273">
        <ele>534.05</ele>
        <time>2019-03-24T09:26:07Z</time>
      </trkpt>
      <trkpt lat="43.88998" lon="7.24291">
        <ele>535.18</ele>
        <time>2019-03-24T09:26:21Z</time>
      </trkpt>
      <trkpt lat="43.89007" lon="7.24313">
        <ele>538.07</ele>
        <time>2019-03-24T09:26:45Z</time>
      </trkpt>
      <trkpt lat="43.89013" lon="7.24338">
        <ele>539.58</ele>
        <time>2019-03-24T09:27:03Z</time>
      </trkpt>
      <trkpt lat="43.8901" lon="7.24368">
        <ele>541.54</ele>
        <time>2019-03-24T09:27:29Z</time>
      </trkpt>
      <trkpt lat="43.89014" lon="7.24394">
        <ele>541.54</ele>
        <time>2019-03-24T09:27:39Z</time>
      </trkpt>
      <trkpt lat="43.8902" lon="7.2442">
        <ele>542.55</ele>
        <time>2019-03-24T09:27:55Z</time>
      </trkpt>
      <trkpt lat="43.89027" lon="7.24446">
        <ele>543.54</ele>
        <time>2019-03-24T09:28:11Z</time>
      </trkpt>
      <trkpt lat="43.8904" lon="7.24468">
        <ele>544.16</ele>
        <time>2019-03-24T09:28:25Z</time>
      </trkpt>
      <trkpt lat="43.89057" lon="7.24473">
        <ele>546.22</ele>
        <time>2019-03-24T09:28:43Z</time>
      </trkpt>
      <trkpt lat="43.89069" lon="7.24493">
        <ele>547.22</ele>
        <time>2019-03-24T09:29:19Z</time>
      </trkpt>
      <trkpt lat="43.89075" lon="7.24518">
        <ele>548.6</ele>
        <time>2019-03-24T09:29:41Z</time>
      </trkpt>
      <trkpt lat="43.8908" lon="7.24544">
        <ele>547.55</ele>
        <time>2019-03-24T09:30:01Z</time>
      </trkpt>
      <trkpt lat="43.89091" lon="7.24567">
        <ele>545.95</ele>
        <time>2019-03-24T09:30:13Z</time>
      </trkpt>
      <trkpt lat="43.89103" lon="7.24586">
        <ele>544.9</ele>
        <time>2019-03-24T09:30:25Z</time>
      </trkpt>
      <trkpt lat="43.89122" lon="7.24595">
        <ele>544.8</ele>
        <time>2019-03-24T09:30:41Z</time>
      </trkpt>
      <trkpt lat="43.89141" lon="7.24598">
        <ele>545.89</ele>
        <time>2019-03-24T09:30:57Z</time>
      </trkpt>
      <trkpt lat="43.8916" lon="7.24598">
        <ele>544.45</ele>
        <time>2019-03-24T09:31:19Z</time>
      </trkpt>
      <trkpt lat="43.89155" lon="7.24626">
        <ele>545.74</ele>
        <time>2019-03-24T09:31:39Z</time>
      </trkpt>
      <trkpt lat="43.89173" lon="7.24631">
        <ele>544.72</ele>
        <time>2019-03-24T09:32:01Z</time>
      </trkpt>
      <trkpt lat="43.89181" lon="7.24658">
        <ele>544.37</ele>
        <time>2019-03-24T09:32:15Z</time>
      </trkpt>
      <trkpt lat="43.89196" lon="7.24674">
        <ele>543.48</ele>
        <time>2019-03-24T09:32:31Z</time>
      </trkpt>
      <trkpt lat="43.89209" lon="7.24692">
        <ele>544.34</ele>
        <time>2019-03-24T09:32:43Z</time>
      </trkpt>
      <trkpt lat="43.89221" lon="7.24711">
        <ele>546.01</ele>
        <time>2019-03-24T09:33:03Z</time>
      </trkpt>
      <trkpt lat="43.8924" lon="7.24717">
        <ele>546.04</ele>
        <time>2019-03-24T09:33:21Z</time>
      </trkpt>
      <trkpt lat="43.89262" lon="7.24725">
        <ele>546.13</ele>
        <time>2019-03-24T09:34:01Z</time>
      </trkpt>
      <trkpt lat="43.89275" lon="7.24747">
        <ele>545.88</ele>
        <time>2019-03-24T09:34:17Z</time>
      </trkpt>
      <trkpt lat="43.89284" lon="7.24769">
        <ele>546.82</ele>
        <time>2019-03-24T09:34:31Z</time>
      </trkpt>
      <trkpt lat="43.89303" lon="7.24771">
        <ele>549.39</ele>
        <time>2019-03-24T09:34:53Z</time>
      </trkpt>
      <trkpt lat="43.89321" lon="7.24761">
        <ele>557.36</ele>
        <time>2019-03-24T09:35:37Z</time>
      </trkpt>
      <trkpt lat="43.89339" lon="7.2477">
        <ele>562.35</ele>
        <time>2019-03-24T09:36:03Z</time>
      </trkpt>
      <trkpt lat="43.89357" lon="7.24761">
        <ele>564.13</ele>
        <time>2019-03-24T09:36:23Z</time>
      </trkpt>
      <trkpt lat="43.89367" lon="7.24738">
        <ele>568</ele>
        <time>2019-03-24T09:36:41Z</time>
      </trkpt>
      <trkpt lat="43.89385" lon="7.24731">
        <ele>571.42</ele>
        <time>2019-03-24T09:37:03Z</time>
      </trkpt>
      <trkpt lat="43.89401" lon="7.2472">
        <ele>573.67</ele>
        <time>2019-03-24T09:37:19Z</time>
      </trkpt>
      <trkpt lat="43.89418" lon="7.24707">
        <ele>575.98</ele>
        <time>2019-03-24T09:37:33Z</time>
      </trkpt>
      <trkpt lat="43.89435" lon="7.24695">
        <ele>579.35</ele>
        <time>2019-03-24T09:37:51Z</time>
      </trkpt>
      <trkpt lat="43.89449" lon="7.2468">
        <ele>582.22</ele>
        <time>2019-03-24T09:38:03Z</time>
      </trkpt>
      <trkpt lat="43.89466" lon="7.24669">
        <ele>584.74</ele>
        <time>2019-03-24T09:38:21Z</time>
      </trkpt>
      <trkpt lat="43.89486" lon="7.2467">
        <ele>586.64</ele>
        <time>2019-03-24T09:38:37Z</time>
      </trkpt>
      <trkpt lat="43.89502" lon="7.24656">
        <ele>587.47</ele>
        <time>2019-03-24T09:38:51Z</time>
      </trkpt>
      <trkpt lat="43.89518" lon="7.24644">
        <ele>588.33</ele>
        <time>2019-03-24T09:39:05Z</time>
      </trkpt>
      <trkpt lat="43.89536" lon="7.24636">
        <ele>591.85</ele>
        <time>2019-03-24T09:39:23Z</time>
      </trkpt>
      <trkpt lat="43.89554" lon="7.24625">
        <ele>593.73</ele>
        <time>2019-03-24T09:39:39Z</time>
      </trkpt>
      <trkpt lat="43.89571" lon="7.24613">
        <ele>596.48</ele>
        <time>2019-03-24T09:39:57Z</time>
      </trkpt>
      <trkpt lat="43.89588" lon="7.24603">
        <ele>598.59</ele>
        <time>2019-03-24T09:40:13Z</time>
      </trkpt>
      <trkpt lat="43.89602" lon="7.24584">
        <ele>599.3</ele>
        <time>2019-03-24T09:40:27Z</time>
      </trkpt>
      <trkpt lat="43.89618" lon="7.24571">
        <ele>600.92</ele>
        <time>2019-03-24T09:40:43Z</time>
      </trkpt>
      <trkpt lat="43.89632" lon="7.24554">
        <ele>601.87</ele>
        <time>2019-03-24T09:40:59Z</time>
      </trkpt>
      <trkpt lat="43.89646" lon="7.24536">
        <ele>602.14</ele>
        <time>2019-03-24T09:41:13Z</time>
      </trkpt>
      <trkpt lat="43.89653" lon="7.24511">
        <ele>602.38</ele>
        <time>2019-03-24T09:41:27Z</time>
      </trkpt>
      <trkpt lat="43.8965" lon="7.24485">
        <ele>601.86</ele>
        <time>2019-03-24T09:41:51Z</time>
      </trkpt>
      <trkpt lat="43.89657" lon="7.2451">
        <ele>599.23</ele>
        <time>2019-03-24T09:42:25Z</time>
      </trkpt>
      <trkpt lat="43.89657" lon="7.24537">
        <ele>597.31</ele>
        <time>2019-03-24T09:42:43Z</time>
      </trkpt>
      <trkpt lat="43.89666" lon="7.2456">
        <ele>597.27</ele>
        <time>2019-03-24T09:42:59Z</time>
      </trkpt>
      <trkpt lat="43.89661" lon="7.24585">
        <ele>598.64</ele>
        <time>2019-03-24T09:43:29Z</time>
      </trkpt>
      <trkpt lat="43.89663" lon="7.2461">
        <ele>600.55</ele>
        <time>2019-03-24T09:43:45Z</time>
      </trkpt>
      <trkpt lat="43.89663" lon="7.24636">
        <ele>601.15</ele>
        <time>2019-03-24T09:44:03Z</time>
      </trkpt>
      <trkpt lat="43.89658" lon="7.24663">
        <ele>600.6</ele>
        <time>2019-03-24T09:44:23Z</time>
      </trkpt>
      <trkpt lat="43.89657" lon="7.24689">
        <ele>602.94</ele>
        <time>2019-03-24T09:44:41Z</time>
      </trkpt>
      <trkpt lat="43.89654" lon="7.24716">
        <ele>605.31</ele>
        <time>2019-03-24T09:45:05Z</time>
      </trkpt>
      <trkpt lat="43.89654" lon="7.24742">
        <ele>605.96</ele>
        <time>2019-03-24T09:45:33Z</time>
      </trkpt>
      <trkpt lat="43.89674" lon="7.24746">
        <ele>601.61</ele>
        <time>2019-03-24T09:48:35Z</time>
      </trkpt>
      <trkpt lat="43.89691" lon="7.24736">
        <ele>605.47</ele>
        <time>2019-03-24T10:00:17Z</time>
      </trkpt>
      <trkpt lat="43.8971" lon="7.24733">
        <ele>607.1</ele>
        <time>2019-03-24T10:00:45Z</time>
      </trkpt>
      <trkpt lat="43.89728" lon="7.2474">
        <ele>607.94</ele>
        <time>2019-03-24T10:01:03Z</time>
      </trkpt>
      <trkpt lat="43.89748" lon="7.24747">
        <ele>609</ele>
        <time>2019-03-24T10:01:21Z</time>
      </trkpt>
      <trkpt lat="43.89768" lon="7.24743">
        <ele>610.59</ele>
        <time>2019-03-24T10:01:39Z</time>
      </trkpt>
      <trkpt lat="43.89787" lon="7.24741">
        <ele>612.35</ele>
        <time>2019-03-24T10:01:59Z</time>
      </trkpt>
      <trkpt lat="43.89806" lon="7.24742">
        <ele>614.02</ele>
        <time>2019-03-24T10:02:15Z</time>
      </trkpt>
      <trkpt lat="43.89825" lon="7.24737">
        <ele>616.17</ele>
        <time>2019-03-24T10:02:37Z</time>
      </trkpt>
      <trkpt lat="43.89843" lon="7.2473">
        <ele>618.1</ele>
        <time>2019-03-24T10:03:01Z</time>
      </trkpt>
      <trkpt lat="43.89861" lon="7.24724">
        <ele>620.49</ele>
        <time>2019-03-24T10:03:29Z</time>
      </trkpt>
      <trkpt lat="43.89879" lon="7.24728">
        <ele>622.04</ele>
        <time>2019-03-24T10:03:49Z</time>
      </trkpt>
      <trkpt lat="43.89897" lon="7.24725">
        <ele>623.56</ele>
        <time>2019-03-24T10:04:09Z</time>
      </trkpt>
      <trkpt lat="43.89915" lon="7.24718">
        <ele>624.52</ele>
        <time>2019-03-24T10:04:27Z</time>
      </trkpt>
      <trkpt lat="43.89934" lon="7.24722">
        <ele>622.75</ele>
        <time>2019-03-24T10:04:51Z</time>
      </trkpt>
      <trkpt lat="43.8995" lon="7.2471">
        <ele>620.73</ele>
        <time>2019-03-24T10:05:03Z</time>
      </trkpt>
      <trkpt lat="43.8997" lon="7.24708">
        <ele>623.53</ele>
        <time>2019-03-24T10:05:49Z</time>
      </trkpt>
      <trkpt lat="43.90002" lon="7.24686">
        <ele>629.41</ele>
        <time>2019-03-24T10:09:37Z</time>
      </trkpt>
      <trkpt lat="43.89987" lon="7.24714">
        <ele>647.29</ele>
        <time>2019-03-24T10:09:41Z</time>
      </trkpt>
      <trkpt lat="43.89968" lon="7.24716">
        <ele>622</ele>
        <time>2019-03-24T10:10:25Z</time>
      </trkpt>
      <trkpt lat="43.89987" lon="7.24708">
        <ele>621.39</ele>
        <time>2019-03-24T10:19:39Z</time>
      </trkpt>
      <trkpt lat="43.89965" lon="7.24705">
        <ele>622.04</ele>
        <time>2019-03-24T10:20:11Z</time>
      </trkpt>
      <trkpt lat="43.89983" lon="7.24699">
        <ele>624.92</ele>
        <time>2019-03-24T10:26:11Z</time>
      </trkpt>
      <trkpt lat="43.89997" lon="7.24681">
        <ele>626.01</ele>
        <time>2019-03-24T10:26:33Z</time>
      </trkpt>
      <trkpt lat="43.89997" lon="7.24655">
        <ele>625.98</ele>
        <time>2019-03-24T10:26:57Z</time>
      </trkpt>
      <trkpt lat="43.90002" lon="7.24629">
        <ele>626.58</ele>
        <time>2019-03-24T10:27:21Z</time>
      </trkpt>
      <trkpt lat="43.9" lon="7.24603">
        <ele>626.91</ele>
        <time>2019-03-24T10:27:39Z</time>
      </trkpt>
      <trkpt lat="43.89986" lon="7.24581">
        <ele>627.71</ele>
        <time>2019-03-24T10:28:03Z</time>
      </trkpt>
      <trkpt lat="43.89992" lon="7.24556">
        <ele>629.63</ele>
        <time>2019-03-24T10:28:59Z</time>
      </trkpt>
      <trkpt lat="43.90012" lon="7.24555">
        <ele>629.74</ele>
        <time>2019-03-24T10:29:05Z</time>
      </trkpt>
      <trkpt lat="43.90027" lon="7.24571">
        <ele>633.39</ele>
        <time>2019-03-24T10:29:53Z</time>
      </trkpt>
      <trkpt lat="43.90046" lon="7.24577">
        <ele>635.66</ele>
        <time>2019-03-24T10:30:13Z</time>
      </trkpt>
      <trkpt lat="43.90064" lon="7.24581">
        <ele>636.76</ele>
        <time>2019-03-24T10:30:25Z</time>
      </trkpt>
      <trkpt lat="43.90083" lon="7.24579">
        <ele>639.16</ele>
        <time>2019-03-24T10:30:41Z</time>
      </trkpt>
      <trkpt lat="43.901" lon="7.24564">
        <ele>642.62</ele>
        <time>2019-03-24T10:30:59Z</time>
      </trkpt>
      <trkpt lat="43.9012" lon="7.24552">
        <ele>645.53</ele>
        <time>2019-03-24T10:31:15Z</time>
      </trkpt>
      <trkpt lat="43.90136" lon="7.24535">
        <ele>648.3</ele>
        <time>2019-03-24T10:31:29Z</time>
      </trkpt>
      <trkpt lat="43.90152" lon="7.24519">
        <ele>650.87</ele>
        <time>2019-03-24T10:31:41Z</time>
      </trkpt>
      <trkpt lat="43.90166" lon="7.24502">
        <ele>653.94</ele>
        <time>2019-03-24T10:31:57Z</time>
      </trkpt>
      <trkpt lat="43.90181" lon="7.24484">
        <ele>657.09</ele>
        <time>2019-03-24T10:32:15Z</time>
      </trkpt>
      <trkpt lat="43.90191" lon="7.24462">
        <ele>660.09</ele>
        <time>2019-03-24T10:32:31Z</time>
      </trkpt>
      <trkpt lat="43.90197" lon="7.24438">
        <ele>662.84</ele>
        <time>2019-03-24T10:32:47Z</time>
      </trkpt>
      <trkpt lat="43.90208" lon="7.24415">
        <ele>664.8</ele>
        <time>2019-03-24T10:32:59Z</time>
      </trkpt>
      <trkpt lat="43.90216" lon="7.24389">
        <ele>666.54</ele>
        <time>2019-03-24T10:33:13Z</time>
      </trkpt>
      <trkpt lat="43.90221" lon="7.24363">
        <ele>669.48</ele>
        <time>2019-03-24T10:33:29Z</time>
      </trkpt>
      <trkpt lat="43.90221" lon="7.24334">
        <ele>670.88</ele>
        <time>2019-03-24T10:33:43Z</time>
      </trkpt>
      <trkpt lat="43.90214" lon="7.24305">
        <ele>670.09</ele>
        <time>2019-03-24T10:34:07Z</time>
      </trkpt>
      <trkpt lat="43.90222" lon="7.24282">
        <ele>666.7</ele>
        <time>2019-03-24T10:34:33Z</time>
      </trkpt>
      <trkpt lat="43.90226" lon="7.24257">
        <ele>666.56</ele>
        <time>2019-03-24T10:34:51Z</time>
      </trkpt>
      <trkpt lat="43.90229" lon="7.24232">
        <ele>666.38</ele>
        <time>2019-03-24T10:35:09Z</time>
      </trkpt>
      <trkpt lat="43.90236" lon="7.24205">
        <ele>666.44</ele>
        <time>2019-03-24T10:35:29Z</time>
      </trkpt>
      <trkpt lat="43.90241" lon="7.2418">
        <ele>666.81</ele>
        <time>2019-03-24T10:35:45Z</time>
      </trkpt>
      <trkpt lat="43.90246" lon="7.24154">
        <ele>667.97</ele>
        <time>2019-03-24T10:36:03Z</time>
      </trkpt>
      <trkpt lat="43.90255" lon="7.24131">
        <ele>668.76</ele>
        <time>2019-03-24T10:36:19Z</time>
      </trkpt>
      <trkpt lat="43.90268" lon="7.24108">
        <ele>669.77</ele>
        <time>2019-03-24T10:36:35Z</time>
      </trkpt>
      <trkpt lat="43.90272" lon="7.24078">
        <ele>669.94</ele>
        <time>2019-03-24T10:36:47Z</time>
      </trkpt>
      <trkpt lat="43.90269" lon="7.24049">
        <ele>670.55</ele>
        <time>2019-03-24T10:37:01Z</time>
      </trkpt>
      <trkpt lat="43.90264" lon="7.24025">
        <ele>672.82</ele>
        <time>2019-03-24T10:37:15Z</time>
      </trkpt>
      <trkpt lat="43.90259" lon="7.24001">
        <ele>673.9</ele>
        <time>2019-03-24T10:37:29Z</time>
      </trkpt>
      <trkpt lat="43.90259" lon="7.23976">
        <ele>674.9</ele>
        <time>2019-03-24T10:37:51Z</time>
      </trkpt>
      <trkpt lat="43.90278" lon="7.23967">
        <ele>674.08</ele>
        <time>2019-03-24T10:38:21Z</time>
      </trkpt>
      <trkpt lat="43.90297" lon="7.23979">
        <ele>673.71</ele>
        <time>2019-03-24T10:38:39Z</time>
      </trkpt>
      <trkpt lat="43.90316" lon="7.23983">
        <ele>672.04</ele>
        <time>2019-03-24T10:38:53Z</time>
      </trkpt>
      <trkpt lat="43.90335" lon="7.23985">
        <ele>671.15</ele>
        <time>2019-03-24T10:39:07Z</time>
      </trkpt>
      <trkpt lat="43.90353" lon="7.23988">
        <ele>671.71</ele>
        <time>2019-03-24T10:39:25Z</time>
      </trkpt>
      <trkpt lat="43.90372" lon="7.23984">
        <ele>672.69</ele>
        <time>2019-03-24T10:39:43Z</time>
      </trkpt>
      <trkpt lat="43.90391" lon="7.23985">
        <ele>670.62</ele>
        <time>2019-03-24T10:40:29Z</time>
      </trkpt>
      <trkpt lat="43.90403" lon="7.23966">
        <ele>667.96</ele>
        <time>2019-03-24T10:40:59Z</time>
      </trkpt>
      <trkpt lat="43.904" lon="7.2394">
        <ele>667.16</ele>
        <time>2019-03-24T10:41:19Z</time>
      </trkpt>
      <trkpt lat="43.90412" lon="7.23921">
        <ele>667.93</ele>
        <time>2019-03-24T10:41:49Z</time>
      </trkpt>
      <trkpt lat="43.90431" lon="7.23906">
        <ele>668.63</ele>
        <time>2019-03-24T10:42:03Z</time>
      </trkpt>
      <trkpt lat="43.90444" lon="7.23886">
        <ele>668.81</ele>
        <time>2019-03-24T10:42:21Z</time>
      </trkpt>
      <trkpt lat="43.9045" lon="7.23861">
        <ele>669.69</ele>
        <time>2019-03-24T10:42:43Z</time>
      </trkpt>
      <trkpt lat="43.90462" lon="7.23842">
        <ele>669.88</ele>
        <time>2019-03-24T10:43:05Z</time>
      </trkpt>
      <trkpt lat="43.9048" lon="7.23853">
        <ele>670.14</ele>
        <time>2019-03-24T10:43:19Z</time>
      </trkpt>
      <trkpt lat="43.90497" lon="7.23841">
        <ele>670.53</ele>
        <time>2019-03-24T10:43:41Z</time>
      </trkpt>
      <trkpt lat="43.90509" lon="7.2382">
        <ele>670.29</ele>
        <time>2019-03-24T10:43:53Z</time>
      </trkpt>
      <trkpt lat="43.9052" lon="7.23797">
        <ele>669.76</ele>
        <time>2019-03-24T10:44:07Z</time>
      </trkpt>
      <trkpt lat="43.90526" lon="7.23773">
        <ele>668.89</ele>
        <time>2019-03-24T10:44:19Z</time>
      </trkpt>
      <trkpt lat="43.90522" lon="7.23748">
        <ele>667.86</ele>
        <time>2019-03-24T10:44:31Z</time>
      </trkpt>
      <trkpt lat="43.9052" lon="7.23721">
        <ele>667.62</ele>
        <time>2019-03-24T10:44:47Z</time>
      </trkpt>
      <trkpt lat="43.90517" lon="7.23696">
        <ele>667.72</ele>
        <time>2019-03-24T10:45:03Z</time>
      </trkpt>
      <trkpt lat="43.90516" lon="7.2367">
        <ele>672.2</ele>
        <time>2019-03-24T10:49:43Z</time>
      </trkpt>
      <trkpt lat="43.90517" lon="7.23643">
        <ele>671.03</ele>
        <time>2019-03-24T10:50:01Z</time>
      </trkpt>
      <trkpt lat="43.90528" lon="7.23622">
        <ele>669.02</ele>
        <time>2019-03-24T10:50:25Z</time>
      </trkpt>
      <trkpt lat="43.90544" lon="7.23609">
        <ele>668.08</ele>
        <time>2019-03-24T10:50:43Z</time>
      </trkpt>
      <trkpt lat="43.90559" lon="7.23594">
        <ele>668.2</ele>
        <time>2019-03-24T10:51:13Z</time>
      </trkpt>
      <trkpt lat="43.90568" lon="7.23572">
        <ele>669.14</ele>
        <time>2019-03-24T10:51:53Z</time>
      </trkpt>
      <trkpt lat="43.90577" lon="7.23547">
        <ele>670.24</ele>
        <time>2019-03-24T10:52:19Z</time>
      </trkpt>
      <trkpt lat="43.90584" lon="7.23521">
        <ele>670.96</ele>
        <time>2019-03-24T10:52:37Z</time>
      </trkpt>
      <trkpt lat="43.90594" lon="7.23497">
        <ele>671.8</ele>
        <time>2019-03-24T10:52:55Z</time>
      </trkpt>
      <trkpt lat="43.90603" lon="7.2347">
        <ele>673.04</ele>
        <time>2019-03-24T10:53:13Z</time>
      </trkpt>
      <trkpt lat="43.90605" lon="7.23443">
        <ele>674.37</ele>
        <time>2019-03-24T10:53:31Z</time>
      </trkpt>
      <trkpt lat="43.90622" lon="7.23458">
        <ele>683.15</ele>
        <time>2019-03-24T10:54:19Z</time>
      </trkpt>
      <trkpt lat="43.9063" lon="7.23484">
        <ele>685.25</ele>
        <time>2019-03-24T10:54:35Z</time>
      </trkpt>
      <trkpt lat="43.90639" lon="7.23509">
        <ele>687.36</ele>
        <time>2019-03-24T10:54:53Z</time>
      </trkpt>
      <trkpt lat="43.90644" lon="7.23537">
        <ele>689.4</ele>
        <time>2019-03-24T10:55:11Z</time>
      </trkpt>
      <trkpt lat="43.90646" lon="7.23564">
        <ele>690.68</ele>
        <time>2019-03-24T10:55:27Z</time>
      </trkpt>
      <trkpt lat="43.90652" lon="7.2359">
        <ele>693.24</ele>
        <time>2019-03-24T10:55:41Z</time>
      </trkpt>
      <trkpt lat="43.9066" lon="7.23614">
        <ele>696.3</ele>
        <time>2019-03-24T10:55:55Z</time>
      </trkpt>
      <trkpt lat="43.9067" lon="7.23638">
        <ele>698.36</ele>
        <time>2019-03-24T10:56:11Z</time>
      </trkpt>
      <trkpt lat="43.9068" lon="7.23661">
        <ele>699.86</ele>
        <time>2019-03-24T10:56:29Z</time>
      </trkpt>
      <trkpt lat="43.90696" lon="7.23675">
        <ele>700.78</ele>
        <time>2019-03-24T10:56:43Z</time>
      </trkpt>
      <trkpt lat="43.90715" lon="7.23677">
        <ele>701.21</ele>
        <time>2019-03-24T10:57:01Z</time>
      </trkpt>
      <trkpt lat="43.90734" lon="7.23677">
        <ele>702.76</ele>
        <time>2019-03-24T10:57:15Z</time>
      </trkpt>
      <trkpt lat="43.90752" lon="7.23682">
        <ele>704.93</ele>
        <time>2019-03-24T10:57:35Z</time>
      </trkpt>
      <trkpt lat="43.90774" lon="7.23686">
        <ele>706.76</ele>
        <time>2019-03-24T10:57:51Z</time>
      </trkpt>
      <trkpt lat="43.90774" lon="7.23713">
        <ele>712.52</ele>
        <time>2019-03-24T10:58:59Z</time>
      </trkpt>
      <trkpt lat="43.9077" lon="7.23738">
        <ele>710.77</ele>
        <time>2019-03-24T10:59:21Z</time>
      </trkpt>
      <trkpt lat="43.90769" lon="7.23766">
        <ele>710.19</ele>
        <time>2019-03-24T10:59:35Z</time>
      </trkpt>
      <trkpt lat="43.90766" lon="7.23793">
        <ele>708.45</ele>
        <time>2019-03-24T10:59:49Z</time>
      </trkpt>
      <trkpt lat="43.90764" lon="7.23818">
        <ele>705.6</ele>
        <time>2019-03-24T11:00:23Z</time>
      </trkpt>
      <trkpt lat="43.90764" lon="7.23844">
        <ele>703.88</ele>
        <time>2019-03-24T11:00:51Z</time>
      </trkpt>
      <trkpt lat="43.90775" lon="7.23866">
        <ele>704.68</ele>
        <time>2019-03-24T11:01:17Z</time>
      </trkpt>
      <trkpt lat="43.90782" lon="7.2389">
        <ele>705.8</ele>
        <time>2019-03-24T11:01:37Z</time>
      </trkpt>
      <trkpt lat="43.90799" lon="7.23907">
        <ele>706.71</ele>
        <time>2019-03-24T11:02:09Z</time>
      </trkpt>
      <trkpt lat="43.90811" lon="7.23926">
        <ele>710.38</ele>
        <time>2019-03-24T11:02:27Z</time>
      </trkpt>
      <trkpt lat="43.90828" lon="7.23937">
        <ele>713.15</ele>
        <time>2019-03-24T11:02:45Z</time>
      </trkpt>
      <trkpt lat="43.90845" lon="7.23949">
        <ele>715.57</ele>
        <time>2019-03-24T11:03:15Z</time>
      </trkpt>
      <trkpt lat="43.90849" lon="7.23975">
        <ele>717.12</ele>
        <time>2019-03-24T11:03:35Z</time>
      </trkpt>
      <trkpt lat="43.90851" lon="7.24001">
        <ele>718.66</ele>
        <time>2019-03-24T11:03:51Z</time>
      </trkpt>
      <trkpt lat="43.9086" lon="7.24026">
        <ele>721.02</ele>
        <time>2019-03-24T11:04:11Z</time>
      </trkpt>
      <trkpt lat="43.90872" lon="7.24046">
        <ele>722.57</ele>
        <time>2019-03-24T11:04:27Z</time>
      </trkpt>
      <trkpt lat="43.90885" lon="7.24064">
        <ele>723.51</ele>
        <time>2019-03-24T11:04:45Z</time>
      </trkpt>
      <trkpt lat="43.90896" lon="7.24083">
        <ele>724.17</ele>
        <time>2019-03-24T11:05:05Z</time>
      </trkpt>
      <trkpt lat="43.90901" lon="7.24108">
        <ele>727.03</ele>
        <time>2019-03-24T11:05:27Z</time>
      </trkpt>
      <trkpt lat="43.90906" lon="7.24135">
        <ele>728.33</ele>
        <time>2019-03-24T11:05:43Z</time>
      </trkpt>
      <trkpt lat="43.90909" lon="7.24161">
        <ele>728.52</ele>
        <time>2019-03-24T11:05:59Z</time>
      </trkpt>
      <trkpt lat="43.90918" lon="7.24185">
        <ele>726.87</ele>
        <time>2019-03-24T11:06:25Z</time>
      </trkpt>
      <trkpt lat="43.90934" lon="7.24199">
        <ele>725.36</ele>
        <time>2019-03-24T11:06:43Z</time>
      </trkpt>
      <trkpt lat="43.9095" lon="7.24212">
        <ele>723.4</ele>
        <time>2019-03-24T11:07:01Z</time>
      </trkpt>
      <trkpt lat="43.90967" lon="7.24221">
        <ele>718.05</ele>
        <time>2019-03-24T11:07:17Z</time>
      </trkpt>
      <trkpt lat="43.90982" lon="7.24235">
        <ele>713.79</ele>
        <time>2019-03-24T11:07:35Z</time>
      </trkpt>
      <trkpt lat="43.90997" lon="7.24248">
        <ele>711.91</ele>
        <time>2019-03-24T11:07:51Z</time>
      </trkpt>
      <trkpt lat="43.91013" lon="7.24262">
        <ele>711.62</ele>
        <time>2019-03-24T11:08:05Z</time>
      </trkpt>
      <trkpt lat="43.91031" lon="7.24273">
        <ele>710.46</ele>
        <time>2019-03-24T11:08:23Z</time>
      </trkpt>
      <trkpt lat="43.91047" lon="7.24287">
        <ele>710.43</ele>
        <time>2019-03-24T11:08:47Z</time>
      </trkpt>
      <trkpt lat="43.91058" lon="7.24308">
        <ele>713.12</ele>
        <time>2019-03-24T11:09:43Z</time>
      </trkpt>
      <trkpt lat="43.91063" lon="7.24333">
        <ele>713.74</ele>
        <time>2019-03-24T11:10:03Z</time>
      </trkpt>
      <trkpt lat="43.91063" lon="7.24359">
        <ele>715.08</ele>
        <time>2019-03-24T11:10:29Z</time>
      </trkpt>
      <trkpt lat="43.91069" lon="7.24383">
        <ele>717.63</ele>
        <time>2019-03-24T11:10:53Z</time>
      </trkpt>
      <trkpt lat="43.91067" lon="7.24409">
        <ele>722.07</ele>
        <time>2019-03-24T11:11:31Z</time>
      </trkpt>
      <trkpt lat="43.91067" lon="7.24434">
        <ele>722.2</ele>
        <time>2019-03-24T11:13:43Z</time>
      </trkpt>
      <trkpt lat="43.91078" lon="7.24457">
        <ele>721.56</ele>
        <time>2019-03-24T11:15:47Z</time>
      </trkpt>
      <trkpt lat="43.91091" lon="7.24474">
        <ele>724.16</ele>
        <time>2019-03-24T11:16:11Z</time>
      </trkpt>
      <trkpt lat="43.91108" lon="7.24486">
        <ele>726.53</ele>
        <time>2019-03-24T11:16:31Z</time>
      </trkpt>
      <trkpt lat="43.91126" lon="7.24498">
        <ele>729.51</ele>
        <time>2019-03-24T11:16:53Z</time>
      </trkpt>
      <trkpt lat="43.91144" lon="7.24507">
        <ele>730.99</ele>
        <time>2019-03-24T11:17:05Z</time>
      </trkpt>
      <trkpt lat="43.91162" lon="7.24514">
        <ele>733.87</ele>
        <time>2019-03-24T11:17:23Z</time>
      </trkpt>
      <trkpt lat="43.91183" lon="7.24518">
        <ele>736.62</ele>
        <time>2019-03-24T11:17:43Z</time>
      </trkpt>
      <trkpt lat="43.91202" lon="7.24517">
        <ele>740.08</ele>
        <time>2019-03-24T11:17:59Z</time>
      </trkpt>
      <trkpt lat="43.9122" lon="7.24523">
        <ele>744.1</ele>
        <time>2019-03-24T11:18:19Z</time>
      </trkpt>
      <trkpt lat="43.91238" lon="7.24531">
        <ele>748.44</ele>
        <time>2019-03-24T11:18:39Z</time>
      </trkpt>
      <trkpt lat="43.91257" lon="7.24532">
        <ele>751.22</ele>
        <time>2019-03-24T11:18:57Z</time>
      </trkpt>
      <trkpt lat="43.91276" lon="7.24532">
        <ele>754.18</ele>
        <time>2019-03-24T11:19:13Z</time>
      </trkpt>
      <trkpt lat="43.91294" lon="7.24531">
        <ele>756.81</ele>
        <time>2019-03-24T11:19:31Z</time>
      </trkpt>
      <trkpt lat="43.91312" lon="7.24523">
        <ele>757.72</ele>
        <time>2019-03-24T11:19:47Z</time>
      </trkpt>
      <trkpt lat="43.91329" lon="7.24516">
        <ele>753.1</ele>
        <time>2019-03-24T11:31:07Z</time>
      </trkpt>
      <trkpt lat="43.9135" lon="7.24514">
        <ele>753.02</ele>
        <time>2019-03-24T11:31:39Z</time>
      </trkpt>
      <trkpt lat="43.91368" lon="7.24519">
        <ele>751.16</ele>
        <time>2019-03-24T11:32:03Z</time>
      </trkpt>
      <trkpt lat="43.91385" lon="7.24508">
        <ele>749.7</ele>
        <time>2019-03-24T11:32:27Z</time>
      </trkpt>
      <trkpt lat="43.91403" lon="7.24512">
        <ele>747.53</ele>
        <time>2019-03-24T11:33:11Z</time>
      </trkpt>
      <trkpt lat="43.91421" lon="7.24509">
        <ele>744.12</ele>
        <time>2019-03-24T11:33:43Z</time>
      </trkpt>
      <trkpt lat="43.91439" lon="7.24501">
        <ele>741.7</ele>
        <time>2019-03-24T11:34:19Z</time>
      </trkpt>
      <trkpt lat="43.91444" lon="7.24476">
        <ele>739.99</ele>
        <time>2019-03-24T11:34:43Z</time>
      </trkpt>
      <trkpt lat="43.91449" lon="7.24449">
        <ele>738.82</ele>
        <time>2019-03-24T11:35:05Z</time>
      </trkpt>
      <trkpt lat="43.91459" lon="7.24426">
        <ele>737.82</ele>
        <time>2019-03-24T11:35:23Z</time>
      </trkpt>
      <trkpt lat="43.91463" lon="7.244">
        <ele>734.77</ele>
        <time>2019-03-24T11:35:43Z</time>
      </trkpt>
      <trkpt lat="43.91469" lon="7.24376">
        <ele>731.89</ele>
        <time>2019-03-24T11:36:01Z</time>
      </trkpt>
      <trkpt lat="43.91479" lon="7.24353">
        <ele>729.19</ele>
        <time>2019-03-24T11:36:23Z</time>
      </trkpt>
      <trkpt lat="43.91478" lon="7.24328">
        <ele>725.56</ele>
        <time>2019-03-24T11:36:47Z</time>
      </trkpt>
      <trkpt lat="43.91492" lon="7.24312">
        <ele>723.62</ele>
        <time>2019-03-24T11:37:11Z</time>
      </trkpt>
      <trkpt lat="43.9151" lon="7.24304">
        <ele>720.66</ele>
        <time>2019-03-24T11:37:33Z</time>
      </trkpt>
      <trkpt lat="43.91525" lon="7.2432">
        <ele>715.58</ele>
        <time>2019-03-24T11:37:59Z</time>
      </trkpt>
      <trkpt lat="43.91544" lon="7.24332">
        <ele>711.47</ele>
        <time>2019-03-24T11:38:21Z</time>
      </trkpt>
      <trkpt lat="43.91563" lon="7.24341">
        <ele>709.56</ele>
        <time>2019-03-24T11:38:41Z</time>
      </trkpt>
      <trkpt lat="43.91581" lon="7.24345">
        <ele>707.13</ele>
        <time>2019-03-24T11:38:57Z</time>
      </trkpt>
      <trkpt lat="43.91601" lon="7.24338">
        <ele>705.55</ele>
        <time>2019-03-24T11:39:13Z</time>
      </trkpt>
      <trkpt lat="43.91621" lon="7.24333">
        <ele>705.12</ele>
        <time>2019-03-24T11:39:33Z</time>
      </trkpt>
      <trkpt lat="43.9164" lon="7.24333">
        <ele>703.99</ele>
        <time>2019-03-24T11:39:47Z</time>
      </trkpt>
      <trkpt lat="43.91658" lon="7.24331">
        <ele>702.79</ele>
        <time>2019-03-24T11:40:05Z</time>
      </trkpt>
      <trkpt lat="43.91676" lon="7.24323">
        <ele>699.32</ele>
        <time>2019-03-24T11:44:23Z</time>
      </trkpt>
      <trkpt lat="43.91688" lon="7.24347">
        <ele>694.83</ele>
        <time>2019-03-24T11:45:07Z</time>
      </trkpt>
      <trkpt lat="43.917" lon="7.24366">
        <ele>692.25</ele>
        <time>2019-03-24T11:45:35Z</time>
      </trkpt>
      <trkpt lat="43.91706" lon="7.24392">
        <ele>694.91</ele>
        <time>2019-03-24T11:46:07Z</time>
      </trkpt>
      <trkpt lat="43.91703" lon="7.24418">
        <ele>703.84</ele>
        <time>2019-03-24T11:46:29Z</time>
      </trkpt>
      <trkpt lat="43.917" lon="7.24443">
        <ele>713.13</ele>
        <time>2019-03-24T11:46:47Z</time>
      </trkpt>
      <trkpt lat="43.917" lon="7.2447">
        <ele>721.51</ele>
        <time>2019-03-24T11:47:13Z</time>
      </trkpt>
      <trkpt lat="43.91707" lon="7.245">
        <ele>730.6</ele>
        <time>2019-03-24T11:47:57Z</time>
      </trkpt>
      <trkpt lat="43.91714" lon="7.24527">
        <ele>734.99</ele>
        <time>2019-03-24T11:48:21Z</time>
      </trkpt>
      <trkpt lat="43.91717" lon="7.24553">
        <ele>738.52</ele>
        <time>2019-03-24T11:48:41Z</time>
      </trkpt>
      <trkpt lat="43.91717" lon="7.2458">
        <ele>741.6</ele>
        <time>2019-03-24T11:48:59Z</time>
      </trkpt>
      <trkpt lat="43.91702" lon="7.24595">
        <ele>745.34</ele>
        <time>2019-03-24T11:49:19Z</time>
      </trkpt>
      <trkpt lat="43.91706" lon="7.24622">
        <ele>749.15</ele>
        <time>2019-03-24T11:49:35Z</time>
      </trkpt>
      <trkpt lat="43.91713" lon="7.24647">
        <ele>751.16</ele>
        <time>2019-03-24T11:49:51Z</time>
      </trkpt>
      <trkpt lat="43.9171" lon="7.24672">
        <ele>754.99</ele>
        <time>2019-03-24T11:50:15Z</time>
      </trkpt>
      <trkpt lat="43.91701" lon="7.24694">
        <ele>757.17</ele>
        <time>2019-03-24T11:50:35Z</time>
      </trkpt>
      <trkpt lat="43.91702" lon="7.24727">
        <ele>758.21</ele>
        <time>2019-03-24T11:50:45Z</time>
      </trkpt>
      <trkpt lat="43.91699" lon="7.24755">
        <ele>757.76</ele>
        <time>2019-03-24T11:51:31Z</time>
      </trkpt>
      <trkpt lat="43.91685" lon="7.24783">
        <ele>753.3</ele>
        <time>2019-03-24T11:55:27Z</time>
      </trkpt>
      <trkpt lat="43.91655" lon="7.24791">
        <ele>740.9</ele>
        <time>2019-03-24T11:57:29Z</time>
      </trkpt>
      <trkpt lat="43.91674" lon="7.2478">
        <ele>750.38</ele>
        <time>2019-03-24T11:57:57Z</time>
      </trkpt>
      <trkpt lat="43.91663" lon="7.24761">
        <ele>762.57</ele>
        <time>2019-03-24T11:58:35Z</time>
      </trkpt>
      <trkpt lat="43.91648" lon="7.24777">
        <ele>758.57</ele>
        <time>2019-03-24T11:59:01Z</time>
      </trkpt>
      <trkpt lat="43.91629" lon="7.2478">
        <ele>758.84</ele>
        <time>2019-03-24T11:59:25Z</time>
      </trkpt>
      <trkpt lat="43.91613" lon="7.2479">
        <ele>759.14</ele>
        <time>2019-03-24T12:00:27Z</time>
      </trkpt>
      <trkpt lat="43.91601" lon="7.24811">
        <ele>764.33</ele>
        <time>2019-03-24T12:00:51Z</time>
      </trkpt>
      <trkpt lat="43.91586" lon="7.24825">
        <ele>766.16</ele>
        <time>2019-03-24T12:01:15Z</time>
      </trkpt>
      <trkpt lat="43.91572" lon="7.24814">
        <ele>750.35</ele>
        <time>2019-03-24T13:32:06Z</time>
      </trkpt>
      <trkpt lat="43.91562" lon="7.24789">
        <ele>749.3</ele>
        <time>2019-03-24T13:32:08Z</time>
      </trkpt>
      <trkpt lat="43.91568" lon="7.24765">
        <ele>736.07</ele>
        <time>2019-03-24T13:32:33Z</time>
      </trkpt>
      <trkpt lat="43.91549" lon="7.24769">
        <ele>739.21</ele>
        <time>2019-03-24T13:33:01Z</time>
      </trkpt>
      <trkpt lat="43.91536" lon="7.24787">
        <ele>737.81</ele>
        <time>2019-03-24T13:33:17Z</time>
      </trkpt>
      <trkpt lat="43.91516" lon="7.24777">
        <ele>727.16</ele>
        <time>2019-03-24T13:35:33Z</time>
      </trkpt>
      <trkpt lat="43.91497" lon="7.2478">
        <ele>723.51</ele>
        <time>2019-03-24T13:35:53Z</time>
      </trkpt>
      <trkpt lat="43.91484" lon="7.248">
        <ele>718.55</ele>
        <time>2019-03-24T13:36:17Z</time>
      </trkpt>
      <trkpt lat="43.91475" lon="7.24821">
        <ele>714.77</ele>
        <time>2019-03-24T13:36:41Z</time>
      </trkpt>
      <trkpt lat="43.91463" lon="7.24841">
        <ele>711.2</ele>
        <time>2019-03-24T13:37:09Z</time>
      </trkpt>
      <trkpt lat="43.91446" lon="7.24855">
        <ele>706.88</ele>
        <time>2019-03-24T13:37:31Z</time>
      </trkpt>
      <trkpt lat="43.91431" lon="7.2487">
        <ele>701.9</ele>
        <time>2019-03-24T13:37:49Z</time>
      </trkpt>
      <trkpt lat="43.91413" lon="7.24879">
        <ele>686.48</ele>
        <time>2019-03-24T13:38:55Z</time>
      </trkpt>
      <trkpt lat="43.91402" lon="7.24901">
        <ele>681.32</ele>
        <time>2019-03-24T13:39:31Z</time>
      </trkpt>
      <trkpt lat="43.91396" lon="7.24925">
        <ele>678.64</ele>
        <time>2019-03-24T13:39:55Z</time>
      </trkpt>
      <trkpt lat="43.91399" lon="7.24951">
        <ele>673.2</ele>
        <time>2019-03-24T13:40:15Z</time>
      </trkpt>
      <trkpt lat="43.91406" lon="7.24974">
        <ele>669.07</ele>
        <time>2019-03-24T13:40:37Z</time>
      </trkpt>
      <trkpt lat="43.91414" lon="7.24999">
        <ele>664.62</ele>
        <time>2019-03-24T13:41:07Z</time>
      </trkpt>
      <trkpt lat="43.91429" lon="7.25015">
        <ele>662.09</ele>
        <time>2019-03-24T13:41:27Z</time>
      </trkpt>
      <trkpt lat="43.91415" lon="7.25031">
        <ele>653.19</ele>
        <time>2019-03-24T13:42:11Z</time>
      </trkpt>
      <trkpt lat="43.91399" lon="7.25044">
        <ele>646.84</ele>
        <time>2019-03-24T13:42:47Z</time>
      </trkpt>
      <trkpt lat="43.91381" lon="7.25045">
        <ele>646.24</ele>
        <time>2019-03-24T13:43:07Z</time>
      </trkpt>
      <trkpt lat="43.91368" lon="7.25065">
        <ele>639.55</ele>
        <time>2019-03-24T13:44:23Z</time>
      </trkpt>
      <trkpt lat="43.9137" lon="7.2509">
        <ele>631.28</ele>
        <time>2019-03-24T13:45:33Z</time>
      </trkpt>
      <trkpt lat="43.91386" lon="7.25104">
        <ele>628.13</ele>
        <time>2019-03-24T13:45:57Z</time>
      </trkpt>
      <trkpt lat="43.91385" lon="7.25129">
        <ele>624.25</ele>
        <time>2019-03-24T13:46:45Z</time>
      </trkpt>
      <trkpt lat="43.91403" lon="7.25142">
        <ele>624.72</ele>
        <time>2019-03-24T13:47:07Z</time>
      </trkpt>
      <trkpt lat="43.91419" lon="7.25157">
        <ele>624.13</ele>
        <time>2019-03-24T13:47:25Z</time>
      </trkpt>
      <trkpt lat="43.91429" lon="7.25179">
        <ele>622.63</ele>
        <time>2019-03-24T13:47:53Z</time>
      </trkpt>
      <trkpt lat="43.9144" lon="7.25201">
        <ele>620.68</ele>
        <time>2019-03-24T13:48:11Z</time>
      </trkpt>
      <trkpt lat="43.91448" lon="7.25226">
        <ele>618.27</ele>
        <time>2019-03-24T13:48:29Z</time>
      </trkpt>
      <trkpt lat="43.91457" lon="7.25251">
        <ele>616.07</ele>
        <time>2019-03-24T13:48:45Z</time>
      </trkpt>
      <trkpt lat="43.91462" lon="7.25279">
        <ele>613.14</ele>
        <time>2019-03-24T13:49:07Z</time>
      </trkpt>
      <trkpt lat="43.91464" lon="7.25305">
        <ele>608.74</ele>
        <time>2019-03-24T13:49:31Z</time>
      </trkpt>
      <trkpt lat="43.91462" lon="7.2533">
        <ele>604.19</ele>
        <time>2019-03-24T13:49:41Z</time>
      </trkpt>
      <trkpt lat="43.91457" lon="7.25355">
        <ele>596.4</ele>
        <time>2019-03-24T13:50:05Z</time>
      </trkpt>
      <trkpt lat="43.9145" lon="7.25379">
        <ele>587.42</ele>
        <time>2019-03-24T13:50:31Z</time>
      </trkpt>
      <trkpt lat="43.91441" lon="7.25401">
        <ele>576.8</ele>
        <time>2019-03-24T13:51:19Z</time>
      </trkpt>
      <trkpt lat="43.91457" lon="7.25415">
        <ele>574.76</ele>
        <time>2019-03-24T13:51:37Z</time>
      </trkpt>
      <trkpt lat="43.91447" lon="7.25437">
        <ele>568.91</ele>
        <time>2019-03-24T13:52:17Z</time>
      </trkpt>
      <trkpt lat="43.91427" lon="7.25441">
        <ele>565.28</ele>
        <time>2019-03-24T13:52:37Z</time>
      </trkpt>
      <trkpt lat="43.91409" lon="7.25434">
        <ele>560.2</ele>
        <time>2019-03-24T13:53:19Z</time>
      </trkpt>
      <trkpt lat="43.9139" lon="7.25437">
        <ele>557.66</ele>
        <time>2019-03-24T13:53:49Z</time>
      </trkpt>
      <trkpt lat="43.91372" lon="7.25434">
        <ele>556.93</ele>
        <time>2019-03-24T13:54:13Z</time>
      </trkpt>
      <trkpt lat="43.91359" lon="7.25452">
        <ele>549.22</ele>
        <time>2019-03-24T13:55:19Z</time>
      </trkpt>
      <trkpt lat="43.9134" lon="7.25458">
        <ele>545.39</ele>
        <time>2019-03-24T13:55:47Z</time>
      </trkpt>
      <trkpt lat="43.91322" lon="7.2545">
        <ele>539.82</ele>
        <time>2019-03-24T13:56:13Z</time>
      </trkpt>
      <trkpt lat="43.91305" lon="7.25438">
        <ele>531.09</ele>
        <time>2019-03-24T13:56:37Z</time>
      </trkpt>
      <trkpt lat="43.91286" lon="7.25434">
        <ele>524.48</ele>
        <time>2019-03-24T13:56:59Z</time>
      </trkpt>
      <trkpt lat="43.91268" lon="7.25428">
        <ele>517.29</ele>
        <time>2019-03-24T13:57:27Z</time>
      </trkpt>
      <trkpt lat="43.9125" lon="7.25418">
        <ele>512.98</ele>
        <time>2019-03-24T13:57:43Z</time>
      </trkpt>
      <trkpt lat="43.91232" lon="7.2541">
        <ele>507.12</ele>
        <time>2019-03-24T13:58:01Z</time>
      </trkpt>
      <trkpt lat="43.91213" lon="7.25407">
        <ele>501.74</ele>
        <time>2019-03-24T13:58:25Z</time>
      </trkpt>
      <trkpt lat="43.91194" lon="7.25403">
        <ele>496.03</ele>
        <time>2019-03-24T13:58:49Z</time>
      </trkpt>
      <trkpt lat="43.91173" lon="7.25399">
        <ele>492.31</ele>
        <time>2019-03-24T13:59:11Z</time>
      </trkpt>
      <trkpt lat="43.91155" lon="7.25399">
        <ele>488.65</ele>
        <time>2019-03-24T13:59:27Z</time>
      </trkpt>
      <trkpt lat="43.91138" lon="7.25409">
        <ele>478.86</ele>
        <time>2019-03-24T14:00:11Z</time>
      </trkpt>
      <trkpt lat="43.91121" lon="7.25399">
        <ele>473.5</ele>
        <time>2019-03-24T14:00:37Z</time>
      </trkpt>
      <trkpt lat="43.91105" lon="7.25385">
        <ele>470.15</ele>
        <time>2019-03-24T14:00:51Z</time>
      </trkpt>
      <trkpt lat="43.91087" lon="7.25387">
        <ele>466.91</ele>
        <time>2019-03-24T14:01:09Z</time>
      </trkpt>
      <trkpt lat="43.91069" lon="7.25392">
        <ele>464.41</ele>
        <time>2019-03-24T14:01:25Z</time>
      </trkpt>
      <trkpt lat="43.9105" lon="7.25392">
        <ele>460.4</ele>
        <time>2019-03-24T14:02:01Z</time>
      </trkpt>
      <trkpt lat="43.91032" lon="7.25386">
        <ele>455.34</ele>
        <time>2019-03-24T14:02:33Z</time>
      </trkpt>
      <trkpt lat="43.91013" lon="7.25379">
        <ele>449.48</ele>
        <time>2019-03-24T14:02:57Z</time>
      </trkpt>
      <trkpt lat="43.90995" lon="7.25371">
        <ele>443.37</ele>
        <time>2019-03-24T14:03:19Z</time>
      </trkpt>
      <trkpt lat="43.90976" lon="7.25363">
        <ele>440.22</ele>
        <time>2019-03-24T14:03:35Z</time>
      </trkpt>
      <trkpt lat="43.90957" lon="7.25362">
        <ele>435.38</ele>
        <time>2019-03-24T14:04:05Z</time>
      </trkpt>
      <trkpt lat="43.90945" lon="7.25343">
        <ele>433.01</ele>
        <time>2019-03-24T14:04:31Z</time>
      </trkpt>
      <trkpt lat="43.90927" lon="7.25343">
        <ele>429.44</ele>
        <time>2019-03-24T14:05:05Z</time>
      </trkpt>
      <trkpt lat="43.90908" lon="7.25345">
        <ele>421.61</ele>
        <time>2019-03-24T14:05:49Z</time>
      </trkpt>
      <trkpt lat="43.90906" lon="7.25319">
        <ele>414.67</ele>
        <time>2019-03-24T14:06:41Z</time>
      </trkpt>
      <trkpt lat="43.90897" lon="7.25296">
        <ele>411.76</ele>
        <time>2019-03-24T14:06:59Z</time>
      </trkpt>
      <trkpt lat="43.90888" lon="7.25274">
        <ele>403.03</ele>
        <time>2019-03-24T14:09:25Z</time>
      </trkpt>
      <trkpt lat="43.90879" lon="7.25249">
        <ele>392.74</ele>
        <time>2019-03-24T14:12:21Z</time>
      </trkpt>
      <trkpt lat="43.90877" lon="7.25224">
        <ele>389.3</ele>
        <time>2019-03-24T14:12:43Z</time>
      </trkpt>
      <trkpt lat="43.90897" lon="7.25221">
        <ele>386.9</ele>
        <time>2019-03-24T14:14:13Z</time>
      </trkpt>
      <trkpt lat="43.90915" lon="7.25226">
        <ele>388.96</ele>
        <time>2019-03-24T14:14:45Z</time>
      </trkpt>
      <trkpt lat="43.90933" lon="7.2524">
        <ele>389.36</ele>
        <time>2019-03-24T14:15:03Z</time>
      </trkpt>
      <trkpt lat="43.90945" lon="7.2522">
        <ele>384.94</ele>
        <time>2019-03-24T14:16:15Z</time>
      </trkpt>
      <trkpt lat="43.90941" lon="7.25195">
        <ele>387.61</ele>
        <time>2019-03-24T14:16:47Z</time>
      </trkpt>
      <trkpt lat="43.90927" lon="7.25177">
        <ele>388.79</ele>
        <time>2019-03-24T14:17:25Z</time>
      </trkpt>
      <trkpt lat="43.90913" lon="7.25163">
        <ele>388.45</ele>
        <time>2019-03-24T14:17:57Z</time>
      </trkpt>
      <trkpt lat="43.90903" lon="7.2514">
        <ele>389.65</ele>
        <time>2019-03-24T14:18:19Z</time>
      </trkpt>
      <trkpt lat="43.90889" lon="7.25124">
        <ele>390.94</ele>
        <time>2019-03-24T14:18:39Z</time>
      </trkpt>
      <trkpt lat="43.90871" lon="7.25115">
        <ele>392.87</ele>
        <time>2019-03-24T14:19:03Z</time>
      </trkpt>
      <trkpt lat="43.90853" lon="7.25108">
        <ele>395.01</ele>
        <time>2019-03-24T14:19:17Z</time>
      </trkpt>
      <trkpt lat="43.90839" lon="7.2509">
        <ele>400.35</ele>
        <time>2019-03-24T14:19:37Z</time>
      </trkpt>
      <trkpt lat="43.90835" lon="7.25064">
        <ele>405.72</ele>
        <time>2019-03-24T14:19:59Z</time>
      </trkpt>
      <trkpt lat="43.90827" lon="7.25041">
        <ele>409.65</ele>
        <time>2019-03-24T14:20:25Z</time>
      </trkpt>
      <trkpt lat="43.90814" lon="7.25023">
        <ele>412.02</ele>
        <time>2019-03-24T14:20:47Z</time>
      </trkpt>
      <trkpt lat="43.90803" lon="7.25003">
        <ele>413.64</ele>
        <time>2019-03-24T14:21:09Z</time>
      </trkpt>
      <trkpt lat="43.90798" lon="7.24979">
        <ele>412.19</ele>
        <time>2019-03-24T14:21:27Z</time>
      </trkpt>
      <trkpt lat="43.90791" lon="7.24955">
        <ele>412.07</ele>
        <time>2019-03-24T14:21:53Z</time>
      </trkpt>
      <trkpt lat="43.90776" lon="7.24941">
        <ele>409.78</ele>
        <time>2019-03-24T14:22:17Z</time>
      </trkpt>
      <trkpt lat="43.9076" lon="7.24924">
        <ele>405.62</ele>
        <time>2019-03-24T14:22:41Z</time>
      </trkpt>
      <trkpt lat="43.90783" lon="7.24911">
        <ele>405.1</ele>
        <time>2019-03-24T14:22:53Z</time>
      </trkpt>
      <trkpt lat="43.90799" lon="7.24899">
        <ele>404.11</ele>
        <time>2019-03-24T14:22:59Z</time>
      </trkpt>
      <trkpt lat="43.90786" lon="7.2488">
        <ele>400.88</ele>
        <time>2019-03-24T14:23:23Z</time>
      </trkpt>
      <trkpt lat="43.90774" lon="7.249">
        <ele>380.17</ele>
        <time>2019-03-24T14:24:31Z</time>
      </trkpt>
      <trkpt lat="43.90772" lon="7.24926">
        <ele>383.67</ele>
        <time>2019-03-24T14:24:51Z</time>
      </trkpt>
      <trkpt lat="43.90759" lon="7.24946">
        <ele>385.42</ele>
        <time>2019-03-24T14:25:07Z</time>
      </trkpt>
      <trkpt lat="43.90743" lon="7.2496">
        <ele>393.24</ele>
        <time>2019-03-24T14:25:53Z</time>
      </trkpt>
      <trkpt lat="43.90734" lon="7.24985">
        <ele>394.49</ele>
        <time>2019-03-24T14:26:17Z</time>
      </trkpt>
      <trkpt lat="43.90726" lon="7.25008">
        <ele>403.14</ele>
        <time>2019-03-24T14:26:55Z</time>
      </trkpt>
      <trkpt lat="43.90713" lon="7.24989">
        <ele>425.92</ele>
        <time>2019-03-24T14:28:07Z</time>
      </trkpt>
      <trkpt lat="43.90707" lon="7.24962">
        <ele>435.27</ele>
        <time>2019-03-24T14:28:33Z</time>
      </trkpt>
      <trkpt lat="43.90695" lon="7.24942">
        <ele>444.81</ele>
        <time>2019-03-24T14:29:25Z</time>
      </trkpt>
      <trkpt lat="43.90689" lon="7.24919">
        <ele>452.93</ele>
        <time>2019-03-24T14:29:57Z</time>
      </trkpt>
      <trkpt lat="43.90671" lon="7.24911">
        <ele>457.22</ele>
        <time>2019-03-24T14:30:15Z</time>
      </trkpt>
      <trkpt lat="43.90665" lon="7.24886">
        <ele>460.31</ele>
        <time>2019-03-24T14:30:39Z</time>
      </trkpt>
      <trkpt lat="43.90659" lon="7.24863">
        <ele>461.79</ele>
        <time>2019-03-24T14:30:59Z</time>
      </trkpt>
      <trkpt lat="43.90664" lon="7.24837">
        <ele>469.34</ele>
        <time>2019-03-24T14:31:41Z</time>
      </trkpt>
      <trkpt lat="43.90666" lon="7.24811">
        <ele>478.14</ele>
        <time>2019-03-24T14:32:13Z</time>
      </trkpt>
      <trkpt lat="43.90671" lon="7.24786">
        <ele>483.41</ele>
        <time>2019-03-24T14:32:37Z</time>
      </trkpt>
      <trkpt lat="43.90683" lon="7.24768">
        <ele>487.43</ele>
        <time>2019-03-24T14:32:53Z</time>
      </trkpt>
      <trkpt lat="43.90683" lon="7.24742">
        <ele>495.14</ele>
        <time>2019-03-24T14:33:23Z</time>
      </trkpt>
      <trkpt lat="43.90672" lon="7.24719">
        <ele>502.03</ele>
        <time>2019-03-24T14:33:49Z</time>
      </trkpt>
      <trkpt lat="43.90666" lon="7.2469">
        <ele>504.46</ele>
        <time>2019-03-24T14:34:05Z</time>
      </trkpt>
      <trkpt lat="43.90654" lon="7.2467">
        <ele>511.6</ele>
        <time>2019-03-24T14:35:25Z</time>
      </trkpt>
      <trkpt lat="43.90641" lon="7.24649">
        <ele>516.35</ele>
        <time>2019-03-24T14:35:53Z</time>
      </trkpt>
      <trkpt lat="43.90624" lon="7.24638">
        <ele>520.09</ele>
        <time>2019-03-24T14:36:13Z</time>
      </trkpt>
      <trkpt lat="43.90615" lon="7.24613">
        <ele>522.68</ele>
        <time>2019-03-24T14:36:37Z</time>
      </trkpt>
      <trkpt lat="43.90599" lon="7.24601">
        <ele>529.45</ele>
        <time>2019-03-24T14:37:15Z</time>
      </trkpt>
      <trkpt lat="43.90586" lon="7.24583">
        <ele>534.68</ele>
        <time>2019-03-24T14:37:39Z</time>
      </trkpt>
      <trkpt lat="43.9058" lon="7.24559">
        <ele>539.82</ele>
        <time>2019-03-24T14:38:07Z</time>
      </trkpt>
      <trkpt lat="43.90577" lon="7.24534">
        <ele>543.45</ele>
        <time>2019-03-24T14:38:31Z</time>
      </trkpt>
      <trkpt lat="43.90571" lon="7.2451">
        <ele>545.3</ele>
        <time>2019-03-24T14:38:49Z</time>
      </trkpt>
      <trkpt lat="43.90559" lon="7.2449">
        <ele>542.43</ele>
        <time>2019-03-24T14:39:21Z</time>
      </trkpt>
      <trkpt lat="43.90541" lon="7.24482">
        <ele>539.67</ele>
        <time>2019-03-24T15:00:13Z</time>
      </trkpt>
      <trkpt lat="43.90522" lon="7.24481">
        <ele>540.41</ele>
        <time>2019-03-24T15:00:35Z</time>
      </trkpt>
      <trkpt lat="43.90506" lon="7.24469">
        <ele>543.56</ele>
        <time>2019-03-24T15:01:05Z</time>
      </trkpt>
      <trkpt lat="43.90491" lon="7.24454">
        <ele>545.56</ele>
        <time>2019-03-24T15:01:23Z</time>
      </trkpt>
      <trkpt lat="43.90475" lon="7.24442">
        <ele>547.05</ele>
        <time>2019-03-24T15:01:43Z</time>
      </trkpt>
      <trkpt lat="43.90468" lon="7.24467">
        <ele>549.63</ele>
        <time>2019-03-24T15:02:11Z</time>
      </trkpt>
      <trkpt lat="43.90477" lon="7.2449">
        <ele>552.51</ele>
        <time>2019-03-24T15:02:29Z</time>
      </trkpt>
      <trkpt lat="43.90476" lon="7.24516">
        <ele>555.32</ele>
        <time>2019-03-24T15:02:45Z</time>
      </trkpt>
      <trkpt lat="43.90472" lon="7.24542">
        <ele>558.19</ele>
        <time>2019-03-24T15:03:07Z</time>
      </trkpt>
      <trkpt lat="43.90475" lon="7.24568">
        <ele>559.51</ele>
        <time>2019-03-24T15:03:29Z</time>
      </trkpt>
      <trkpt lat="43.90465" lon="7.24589">
        <ele>560.16</ele>
        <time>2019-03-24T15:03:45Z</time>
      </trkpt>
      <trkpt lat="43.90453" lon="7.24609">
        <ele>559.06</ele>
        <time>2019-03-24T15:04:03Z</time>
      </trkpt>
      <trkpt lat="43.9044" lon="7.24629">
        <ele>558.78</ele>
        <time>2019-03-24T15:04:21Z</time>
      </trkpt>
      <trkpt lat="43.90422" lon="7.2464">
        <ele>558.62</ele>
        <time>2019-03-24T15:04:45Z</time>
      </trkpt>
      <trkpt lat="43.90404" lon="7.24645">
        <ele>559.44</ele>
        <time>2019-03-24T15:05:07Z</time>
      </trkpt>
      <trkpt lat="43.90385" lon="7.24646">
        <ele>559.47</ele>
        <time>2019-03-24T15:05:23Z</time>
      </trkpt>
      <trkpt lat="43.90375" lon="7.24667">
        <ele>559.91</ele>
        <time>2019-03-24T15:05:41Z</time>
      </trkpt>
      <trkpt lat="43.90364" lon="7.24689">
        <ele>558.98</ele>
        <time>2019-03-24T15:06:01Z</time>
      </trkpt>
      <trkpt lat="43.90347" lon="7.24703">
        <ele>558.02</ele>
        <time>2019-03-24T15:06:19Z</time>
      </trkpt>
      <trkpt lat="43.90329" lon="7.24706">
        <ele>558.03</ele>
        <time>2019-03-24T15:06:47Z</time>
      </trkpt>
      <trkpt lat="43.90312" lon="7.24699">
        <ele>562.16</ele>
        <time>2019-03-24T15:07:23Z</time>
      </trkpt>
      <trkpt lat="43.90294" lon="7.24699">
        <ele>564.4</ele>
        <time>2019-03-24T15:07:49Z</time>
      </trkpt>
      <trkpt lat="43.90275" lon="7.247">
        <ele>566.52</ele>
        <time>2019-03-24T15:08:03Z</time>
      </trkpt>
      <trkpt lat="43.90257" lon="7.247">
        <ele>569.11</ele>
        <time>2019-03-24T15:08:17Z</time>
      </trkpt>
      <trkpt lat="43.90238" lon="7.24697">
        <ele>570.82</ele>
        <time>2019-03-24T15:08:41Z</time>
      </trkpt>
      <trkpt lat="43.9022" lon="7.24707">
        <ele>568.79</ele>
        <time>2019-03-24T15:09:37Z</time>
      </trkpt>
      <trkpt lat="43.90208" lon="7.24727">
        <ele>570.53</ele>
        <time>2019-03-24T15:10:05Z</time>
      </trkpt>
      <trkpt lat="43.9019" lon="7.24733">
        <ele>572.42</ele>
        <time>2019-03-24T15:10:23Z</time>
      </trkpt>
      <trkpt lat="43.90171" lon="7.24733">
        <ele>575.64</ele>
        <time>2019-03-24T15:10:45Z</time>
      </trkpt>
      <trkpt lat="43.90153" lon="7.24728">
        <ele>576.93</ele>
        <time>2019-03-24T15:11:01Z</time>
      </trkpt>
      <trkpt lat="43.90135" lon="7.24721">
        <ele>580.55</ele>
        <time>2019-03-24T15:11:25Z</time>
      </trkpt>
      <trkpt lat="43.90117" lon="7.24711">
        <ele>586.07</ele>
        <time>2019-03-24T15:11:53Z</time>
      </trkpt>
      <trkpt lat="43.90098" lon="7.24702">
        <ele>591.6</ele>
        <time>2019-03-24T15:12:15Z</time>
      </trkpt>
      <trkpt lat="43.90082" lon="7.24686">
        <ele>595.99</ele>
        <time>2019-03-24T15:12:39Z</time>
      </trkpt>
      <trkpt lat="43.90066" lon="7.2467">
        <ele>600.51</ele>
        <time>2019-03-24T15:13:03Z</time>
      </trkpt>
      <trkpt lat="43.90051" lon="7.24656">
        <ele>604.83</ele>
        <time>2019-03-24T15:13:25Z</time>
      </trkpt>
      <trkpt lat="43.90034" lon="7.24646">
        <ele>609.99</ele>
        <time>2019-03-24T15:13:49Z</time>
      </trkpt>
      <trkpt lat="43.90017" lon="7.24632">
        <ele>612.31</ele>
        <time>2019-03-24T15:14:07Z</time>
      </trkpt>
      <trkpt lat="43.89999" lon="7.24637">
        <ele>614.22</ele>
        <time>2019-03-24T15:14:31Z</time>
      </trkpt>
      <trkpt lat="43.89994" lon="7.24661">
        <ele>612.95</ele>
        <time>2019-03-24T15:15:55Z</time>
      </trkpt>
      <trkpt lat="43.89981" lon="7.24678">
        <ele>609.69</ele>
        <time>2019-03-24T15:16:09Z</time>
      </trkpt>
      <trkpt lat="43.89972" lon="7.24701">
        <ele>609.46</ele>
        <time>2019-03-24T15:18:07Z</time>
      </trkpt>
      <trkpt lat="43.89953" lon="7.2471">
        <ele>607.83</ele>
        <time>2019-03-24T15:18:23Z</time>
      </trkpt>
      <trkpt lat="43.89934" lon="7.24708">
        <ele>606.27</ele>
        <time>2019-03-24T15:18:37Z</time>
      </trkpt>
      <trkpt lat="43.89915" lon="7.24704">
        <ele>605.23</ele>
        <time>2019-03-24T15:18:51Z</time>
      </trkpt>
      <trkpt lat="43.89896" lon="7.24703">
        <ele>604.12</ele>
        <time>2019-03-24T15:19:11Z</time>
      </trkpt>
      <trkpt lat="43.89876" lon="7.24703">
        <ele>601.93</ele>
        <time>2019-03-24T15:19:31Z</time>
      </trkpt>
      <trkpt lat="43.89857" lon="7.24706">
        <ele>601.06</ele>
        <time>2019-03-24T15:19:47Z</time>
      </trkpt>
      <trkpt lat="43.89841" lon="7.24717">
        <ele>600.77</ele>
        <time>2019-03-24T15:20:01Z</time>
      </trkpt>
      <trkpt lat="43.8982" lon="7.24723">
        <ele>601.11</ele>
        <time>2019-03-24T15:20:21Z</time>
      </trkpt>
      <trkpt lat="43.89802" lon="7.24726">
        <ele>600.96</ele>
        <time>2019-03-24T15:20:35Z</time>
      </trkpt>
      <trkpt lat="43.89783" lon="7.24731">
        <ele>600.33</ele>
        <time>2019-03-24T15:20:51Z</time>
      </trkpt>
      <trkpt lat="43.89762" lon="7.24727">
        <ele>599.19</ele>
        <time>2019-03-24T15:21:09Z</time>
      </trkpt>
      <trkpt lat="43.89743" lon="7.24727">
        <ele>599.2</ele>
        <time>2019-03-24T15:21:23Z</time>
      </trkpt>
      <trkpt lat="43.89724" lon="7.24726">
        <ele>599.12</ele>
        <time>2019-03-24T15:21:39Z</time>
      </trkpt>
      <trkpt lat="43.89705" lon="7.24729">
        <ele>598.74</ele>
        <time>2019-03-24T15:21:55Z</time>
      </trkpt>
      <trkpt lat="43.89687" lon="7.2474">
        <ele>597.11</ele>
        <time>2019-03-24T15:22:15Z</time>
      </trkpt>
      <trkpt lat="43.89669" lon="7.24744">
        <ele>594.76</ele>
        <time>2019-03-24T15:22:35Z</time>
      </trkpt>
      <trkpt lat="43.89659" lon="7.24722">
        <ele>589.96</ele>
        <time>2019-03-24T15:23:13Z</time>
      </trkpt>
      <trkpt lat="43.89662" lon="7.24695">
        <ele>585.95</ele>
        <time>2019-03-24T15:23:31Z</time>
      </trkpt>
      <trkpt lat="43.89663" lon="7.24669">
        <ele>583.85</ele>
        <time>2019-03-24T15:23:51Z</time>
      </trkpt>
      <trkpt lat="43.89668" lon="7.24644">
        <ele>581.24</ele>
        <time>2019-03-24T15:24:07Z</time>
      </trkpt>
      <trkpt lat="43.89672" lon="7.24617">
        <ele>579</ele>
        <time>2019-03-24T15:24:23Z</time>
      </trkpt>
      <trkpt lat="43.89671" lon="7.24591">
        <ele>575.21</ele>
        <time>2019-03-24T15:24:39Z</time>
      </trkpt>
      <trkpt lat="43.89673" lon="7.24564">
        <ele>572.76</ele>
        <time>2019-03-24T15:24:55Z</time>
      </trkpt>
      <trkpt lat="43.89672" lon="7.24539">
        <ele>570.48</ele>
        <time>2019-03-24T15:25:13Z</time>
      </trkpt>
      <trkpt lat="43.89677" lon="7.24515">
        <ele>568.35</ele>
        <time>2019-03-24T15:25:31Z</time>
      </trkpt>
      <trkpt lat="43.89675" lon="7.24486">
        <ele>566.68</ele>
        <time>2019-03-24T15:25:49Z</time>
      </trkpt>
      <trkpt lat="43.89656" lon="7.2448">
        <ele>563.34</ele>
        <time>2019-03-24T15:26:13Z</time>
      </trkpt>
      <trkpt lat="43.8965" lon="7.24504">
        <ele>561.45</ele>
        <time>2019-03-24T15:26:29Z</time>
      </trkpt>
      <trkpt lat="43.89635" lon="7.24521">
        <ele>560.28</ele>
        <time>2019-03-24T15:26:45Z</time>
      </trkpt>
      <trkpt lat="43.89617" lon="7.24534">
        <ele>558.94</ele>
        <time>2019-03-24T15:26:59Z</time>
      </trkpt>
      <trkpt lat="43.89601" lon="7.24552">
        <ele>557.97</ele>
        <time>2019-03-24T15:27:13Z</time>
      </trkpt>
      <trkpt lat="43.89588" lon="7.24569">
        <ele>556.21</ele>
        <time>2019-03-24T15:27:33Z</time>
      </trkpt>
      <trkpt lat="43.89574" lon="7.24585">
        <ele>555.26</ele>
        <time>2019-03-24T15:27:45Z</time>
      </trkpt>
      <trkpt lat="43.89556" lon="7.24591">
        <ele>553.24</ele>
        <time>2019-03-24T15:27:59Z</time>
      </trkpt>
      <trkpt lat="43.89538" lon="7.24599">
        <ele>551.6</ele>
        <time>2019-03-24T15:28:13Z</time>
      </trkpt>
      <trkpt lat="43.89521" lon="7.24613">
        <ele>550.38</ele>
        <time>2019-03-24T15:28:25Z</time>
      </trkpt>
      <trkpt lat="43.89501" lon="7.24624">
        <ele>547.56</ele>
        <time>2019-03-24T15:28:39Z</time>
      </trkpt>
      <trkpt lat="43.89481" lon="7.24628">
        <ele>546.99</ele>
        <time>2019-03-24T15:28:53Z</time>
      </trkpt>
      <trkpt lat="43.89462" lon="7.24638">
        <ele>545.52</ele>
        <time>2019-03-24T15:29:07Z</time>
      </trkpt>
      <trkpt lat="43.89447" lon="7.24655">
        <ele>542.52</ele>
        <time>2019-03-24T15:29:19Z</time>
      </trkpt>
      <trkpt lat="43.89431" lon="7.24666">
        <ele>541.48</ele>
        <time>2019-03-24T15:29:31Z</time>
      </trkpt>
      <trkpt lat="43.89415" lon="7.24682">
        <ele>541.85</ele>
        <time>2019-03-24T15:29:45Z</time>
      </trkpt>
      <trkpt lat="43.89396" lon="7.24693">
        <ele>542.89</ele>
        <time>2019-03-24T15:29:59Z</time>
      </trkpt>
      <trkpt lat="43.89381" lon="7.24708">
        <ele>546.14</ele>
        <time>2019-03-24T15:30:19Z</time>
      </trkpt>
      <trkpt lat="43.89368" lon="7.24728">
        <ele>547.55</ele>
        <time>2019-03-24T15:30:37Z</time>
      </trkpt>
      <trkpt lat="43.89359" lon="7.2475">
        <ele>546.99</ele>
        <time>2019-03-24T15:30:49Z</time>
      </trkpt>
      <trkpt lat="43.89342" lon="7.2476">
        <ele>544.64</ele>
        <time>2019-03-24T15:31:09Z</time>
      </trkpt>
      <trkpt lat="43.89323" lon="7.24752">
        <ele>544.39</ele>
        <time>2019-03-24T15:31:33Z</time>
      </trkpt>
      <trkpt lat="43.89307" lon="7.24762">
        <ele>542.9</ele>
        <time>2019-03-24T15:32:09Z</time>
      </trkpt>
      <trkpt lat="43.89287" lon="7.24766">
        <ele>541.12</ele>
        <time>2019-03-24T15:32:27Z</time>
      </trkpt>
      <trkpt lat="43.89272" lon="7.24751">
        <ele>538</ele>
        <time>2019-03-24T15:32:43Z</time>
      </trkpt>
      <trkpt lat="43.89268" lon="7.24726">
        <ele>534.41</ele>
        <time>2019-03-24T15:33:01Z</time>
      </trkpt>
      <trkpt lat="43.89252" lon="7.24712">
        <ele>531.75</ele>
        <time>2019-03-24T15:33:15Z</time>
      </trkpt>
      <trkpt lat="43.89235" lon="7.24701">
        <ele>532.2</ele>
        <time>2019-03-24T15:33:33Z</time>
      </trkpt>
      <trkpt lat="43.89216" lon="7.24689">
        <ele>533.76</ele>
        <time>2019-03-24T15:33:49Z</time>
      </trkpt>
      <trkpt lat="43.89202" lon="7.24669">
        <ele>533.15</ele>
        <time>2019-03-24T15:34:05Z</time>
      </trkpt>
      <trkpt lat="43.89191" lon="7.24647">
        <ele>529.52</ele>
        <time>2019-03-24T15:35:19Z</time>
      </trkpt>
      <trkpt lat="43.89188" lon="7.24618">
        <ele>530.01</ele>
        <time>2019-03-24T15:38:07Z</time>
      </trkpt>
      <trkpt lat="43.89185" lon="7.2459">
        <ele>530.55</ele>
        <time>2019-03-24T15:38:37Z</time>
      </trkpt>
      <trkpt lat="43.89169" lon="7.2458">
        <ele>532.57</ele>
        <time>2019-03-24T15:38:51Z</time>
      </trkpt>
      <trkpt lat="43.89149" lon="7.24575">
        <ele>533.52</ele>
        <time>2019-03-24T15:39:07Z</time>
      </trkpt>
      <trkpt lat="43.89127" lon="7.24584">
        <ele>533.98</ele>
        <time>2019-03-24T15:39:21Z</time>
      </trkpt>
      <trkpt lat="43.89107" lon="7.24578">
        <ele>534.01</ele>
        <time>2019-03-24T15:39:33Z</time>
      </trkpt>
      <trkpt lat="43.89094" lon="7.24557">
        <ele>532.66</ele>
        <time>2019-03-24T15:39:47Z</time>
      </trkpt>
      <trkpt lat="43.89094" lon="7.24532">
        <ele>531.48</ele>
        <time>2019-03-24T15:40:05Z</time>
      </trkpt>
      <trkpt lat="43.89088" lon="7.24506">
        <ele>532.81</ele>
        <time>2019-03-24T15:40:23Z</time>
      </trkpt>
      <trkpt lat="43.89077" lon="7.24484">
        <ele>532.58</ele>
        <time>2019-03-24T15:40:47Z</time>
      </trkpt>
      <trkpt lat="43.89058" lon="7.24475">
        <ele>535.2</ele>
        <time>2019-03-24T15:41:03Z</time>
      </trkpt>
      <trkpt lat="43.89042" lon="7.24461">
        <ele>535.8</ele>
        <time>2019-03-24T15:41:19Z</time>
      </trkpt>
      <trkpt lat="43.8903" lon="7.24442">
        <ele>535.71</ele>
        <time>2019-03-24T15:41:35Z</time>
      </trkpt>
      <trkpt lat="43.89026" lon="7.24418">
        <ele>534.28</ele>
        <time>2019-03-24T15:41:49Z</time>
      </trkpt>
      <trkpt lat="43.89016" lon="7.24396">
        <ele>534.5</ele>
        <time>2019-03-24T15:42:03Z</time>
      </trkpt>
      <trkpt lat="43.89019" lon="7.2437">
        <ele>534.45</ele>
        <time>2019-03-24T15:42:17Z</time>
      </trkpt>
      <trkpt lat="43.89016" lon="7.24345">
        <ele>537.69</ele>
        <time>2019-03-24T15:42:33Z</time>
      </trkpt>
      <trkpt lat="43.89007" lon="7.24322">
        <ele>539.34</ele>
        <time>2019-03-24T15:42:51Z</time>
      </trkpt>
      <trkpt lat="43.88993" lon="7.24306">
        <ele>538.05</ele>
        <time>2019-03-24T15:43:09Z</time>
      </trkpt>
      <trkpt lat="43.88987" lon="7.2428">
        <ele>539.01</ele>
        <time>2019-03-24T15:43:31Z</time>
      </trkpt>
      <trkpt lat="43.88994" lon="7.24257">
        <ele>539.97</ele>
        <time>2019-03-24T15:43:43Z</time>
      </trkpt>
      <trkpt lat="43.88997" lon="7.24231">
        <ele>542.28</ele>
        <time>2019-03-24T15:43:57Z</time>
      </trkpt>
      <trkpt lat="43.88978" lon="7.24219">
        <ele>550.85</ele>
        <time>2019-03-24T15:44:47Z</time>
      </trkpt>
      <trkpt lat="43.8896" lon="7.2422">
        <ele>552.68</ele>
        <time>2019-03-24T15:44:57Z</time>
      </trkpt>
      <trkpt lat="43.88947" lon="7.24197">
        <ele>553.78</ele>
        <time>2019-03-24T15:45:11Z</time>
      </trkpt>
      <trkpt lat="43.88944" lon="7.24168">
        <ele>552.77</ele>
        <time>2019-03-24T15:45:25Z</time>
      </trkpt>
      <trkpt lat="43.88925" lon="7.24166">
        <ele>552.44</ele>
        <time>2019-03-24T15:45:51Z</time>
      </trkpt>
      <trkpt lat="43.88905" lon="7.24161">
        <ele>549.4</ele>
        <time>2019-03-24T15:46:09Z</time>
      </trkpt>
      <trkpt lat="43.88886" lon="7.24163">
        <ele>547.48</ele>
        <time>2019-03-24T15:46:25Z</time>
      </trkpt>
      <trkpt lat="43.88881" lon="7.24187">
        <ele>542.9</ele>
        <time>2019-03-24T15:46:51Z</time>
      </trkpt>
      <trkpt lat="43.88868" lon="7.24205">
        <ele>527.73</ele>
        <time>2019-03-24T15:47:21Z</time>
      </trkpt>
      <trkpt lat="43.8887" lon="7.24231">
        <ele>520.4</ele>
        <time>2019-03-24T15:47:45Z</time>
      </trkpt>
      <trkpt lat="43.88852" lon="7.24232">
        <ele>512.72</ele>
        <time>2019-03-24T15:48:01Z</time>
      </trkpt>
      <trkpt lat="43.88836" lon="7.24243">
        <ele>507.46</ele>
        <time>2019-03-24T15:48:17Z</time>
      </trkpt>
      <trkpt lat="43.88819" lon="7.24254">
        <ele>503.46</ele>
        <time>2019-03-24T15:48:35Z</time>
      </trkpt>
      <trkpt lat="43.88801" lon="7.24261">
        <ele>499.23</ele>
        <time>2019-03-24T15:48:49Z</time>
      </trkpt>
      <trkpt lat="43.88782" lon="7.24267">
        <ele>493.7</ele>
        <time>2019-03-24T15:49:09Z</time>
      </trkpt>
      <trkpt lat="43.88765" lon="7.24258">
        <ele>488.19</ele>
        <time>2019-03-24T15:49:37Z</time>
      </trkpt>
      <trkpt lat="43.88764" lon="7.24232">
        <ele>485.58</ele>
        <time>2019-03-24T15:49:55Z</time>
      </trkpt>
      <trkpt lat="43.88767" lon="7.24259">
        <ele>480.51</ele>
        <time>2019-03-24T15:50:41Z</time>
      </trkpt>
      <trkpt lat="43.8876" lon="7.24285">
        <ele>478.22</ele>
        <time>2019-03-24T15:50:55Z</time>
      </trkpt>
      <trkpt lat="43.8875" lon="7.24308">
        <ele>474.9</ele>
        <time>2019-03-24T15:51:09Z</time>
      </trkpt>
      <trkpt lat="43.88734" lon="7.24294">
        <ele>469.05</ele>
        <time>2019-03-24T15:51:27Z</time>
      </trkpt>
      <trkpt lat="43.88725" lon="7.24271">
        <ele>465.15</ele>
        <time>2019-03-24T15:51:45Z</time>
      </trkpt>
      <trkpt lat="43.88717" lon="7.24249">
        <ele>462.7</ele>
        <time>2019-03-24T15:52:59Z</time>
      </trkpt>
      <trkpt lat="43.88702" lon="7.24232">
        <ele>460.12</ele>
        <time>2019-03-24T15:53:29Z</time>
      </trkpt>
      <trkpt lat="43.88687" lon="7.24217">
        <ele>447.38</ele>
        <time>2019-03-24T15:54:13Z</time>
      </trkpt>
      <trkpt lat="43.88675" lon="7.24196">
        <ele>434.42</ele>
        <time>2019-03-24T15:54:51Z</time>
      </trkpt>
      <trkpt lat="43.8867" lon="7.24171">
        <ele>429.74</ele>
        <time>2019-03-24T15:55:09Z</time>
      </trkpt>
      <trkpt lat="43.88671" lon="7.24142">
        <ele>425.34</ele>
        <time>2019-03-24T15:55:25Z</time>
      </trkpt>
      <trkpt lat="43.88653" lon="7.24153">
        <ele>413.63</ele>
        <time>2019-03-24T15:56:19Z</time>
      </trkpt>
      <trkpt lat="43.88635" lon="7.24163">
        <ele>398.36</ele>
        <time>2019-03-24T15:57:07Z</time>
      </trkpt>
      <trkpt lat="43.8863" lon="7.2419">
        <ele>392.69</ele>
        <time>2019-03-24T15:57:29Z</time>
      </trkpt>
      <trkpt lat="43.8863" lon="7.24216">
        <ele>388.18</ele>
        <time>2019-03-24T15:57:49Z</time>
      </trkpt>
      <trkpt lat="43.88626" lon="7.24243">
        <ele>385.14</ele>
        <time>2019-03-24T15:58:07Z</time>
      </trkpt>
      <trkpt lat="43.88606" lon="7.24241">
        <ele>382.15</ele>
        <time>2019-03-24T15:58:19Z</time>
      </trkpt>
      <trkpt lat="43.88592" lon="7.24222">
        <ele>377.12</ele>
        <time>2019-03-24T15:58:35Z</time>
      </trkpt>
      <trkpt lat="43.88589" lon="7.24195">
        <ele>372.53</ele>
        <time>2019-03-24T15:58:49Z</time>
      </trkpt>
      <trkpt lat="43.88586" lon="7.24169">
        <ele>368.9</ele>
        <time>2019-03-24T15:59:05Z</time>
      </trkpt>
      <trkpt lat="43.88578" lon="7.24145">
        <ele>365.48</ele>
        <time>2019-03-24T15:59:21Z</time>
      </trkpt>
      <trkpt lat="43.88569" lon="7.24121">
        <ele>362.19</ele>
        <time>2019-03-24T15:59:37Z</time>
      </trkpt>
      <trkpt lat="43.88559" lon="7.24098">
        <ele>357.77</ele>
        <time>2019-03-24T15:59:57Z</time>
      </trkpt>
      <trkpt lat="43.88544" lon="7.24083">
        <ele>352.27</ele>
        <time>2019-03-24T16:00:15Z</time>
      </trkpt>
      <trkpt lat="43.88528" lon="7.24068">
        <ele>348.14</ele>
        <time>2019-03-24T16:00:31Z</time>
      </trkpt>
      <trkpt lat="43.88509" lon="7.24071">
        <ele>343.68</ele>
        <time>2019-03-24T16:00:49Z</time>
      </trkpt>
      <trkpt lat="43.8849" lon="7.24067">
        <ele>338.86</ele>
        <time>2019-03-24T16:01:07Z</time>
      </trkpt>
      <trkpt lat="43.88473" lon="7.24054">
        <ele>337.1</ele>
        <time>2019-03-24T16:01:21Z</time>
      </trkpt>
      <trkpt lat="43.88459" lon="7.24035">
        <ele>334.86</ele>
        <time>2019-03-24T16:01:39Z</time>
      </trkpt>
      <trkpt lat="43.88448" lon="7.24011">
        <ele>331.88</ele>
        <time>2019-03-24T16:01:55Z</time>
      </trkpt>
      <trkpt lat="43.8844" lon="7.23989">
        <ele>328.15</ele>
        <time>2019-03-24T16:02:09Z</time>
      </trkpt>
      <trkpt lat="43.88428" lon="7.23965">
        <ele>325.64</ele>
        <time>2019-03-24T16:02:29Z</time>
      </trkpt>
      <trkpt lat="43.88419" lon="7.23942">
        <ele>324.84</ele>
        <time>2019-03-24T16:02:41Z</time>
      </trkpt>
      <trkpt lat="43.88406" lon="7.23919">
        <ele>321.57</ele>
        <time>2019-03-24T16:02:57Z</time>
      </trkpt>
      <trkpt lat="43.88401" lon="7.23893">
        <ele>320</ele>
        <time>2019-03-24T16:03:17Z</time>
      </trkpt>
      <trkpt lat="43.88388" lon="7.23876">
        <ele>317.5</ele>
        <time>2019-03-24T16:03:57Z</time>
      </trkpt>
      <trkpt lat="43.88384" lon="7.23851">
        <ele>315.34</ele>
        <time>2019-03-24T16:04:15Z</time>
      </trkpt>
      <trkpt lat="43.8837" lon="7.23835">
        <ele>314.11</ele>
        <time>2019-03-24T16:04:27Z</time>
      </trkpt>
      <trkpt lat="43.8836" lon="7.2381">
        <ele>313.11</ele>
        <time>2019-03-24T16:04:45Z</time>
      </trkpt>
      <trkpt lat="43.8835" lon="7.23788">
        <ele>315.4</ele>
        <time>2019-03-24T16:04:59Z</time>
      </trkpt>
      <trkpt lat="43.88337" lon="7.23764">
        <ele>320.18</ele>
        <time>2019-03-24T16:05:13Z</time>
      </trkpt>
      <trkpt lat="43.88326" lon="7.23744">
        <ele>328.82</ele>
        <time>2019-03-24T16:05:25Z</time>
      </trkpt>
      <trkpt lat="43.88316" lon="7.23721">
        <ele>334.69</ele>
        <time>2019-03-24T16:05:37Z</time>
      </trkpt>
      <trkpt lat="43.88311" lon="7.23695">
        <ele>337.62</ele>
        <time>2019-03-24T16:05:51Z</time>
      </trkpt>
      <trkpt lat="43.88301" lon="7.23672">
        <ele>337.61</ele>
        <time>2019-03-24T16:06:05Z</time>
      </trkpt>
      <trkpt lat="43.88304" lon="7.23646">
        <ele>342.15</ele>
        <time>2019-03-24T16:06:21Z</time>
      </trkpt>
      <trkpt lat="43.88294" lon="7.23624">
        <ele>345.99</ele>
        <time>2019-03-24T16:06:37Z</time>
      </trkpt>
    </trkseg>
  </trk>
</gpx>